<?xml version="1.0" encoding="UTF-8" standalone="no" ?>
<gpx xmlns="http://www.topografix.com/GPX/1/1" xmlns:xsi="http://www.w3.org/2001/XMLSchema-instance" xsi:schemaLocation="http://www.topografix.com/GPX/1/1 http://www.topografix.com/GPX/1/1/gpx.xsd" version="1.1" creator="VisuGPX - https://www.visugpx.com">
  <metadata>
    <name>Rando à Château Vallon</name>
    <desc><![CDATA[superbe endroit!]]></desc>
  </metadata>
  <trk>
    <name><![CDATA[Rando à Château Vallon_1]]></name>
    <trkseg>
      <trkpt lat="44.73961" lon="2.63512">
        <ele>538.4</ele>
        <time>2022-04-28T13:56:02Z</time>
      </trkpt>
      <trkpt lat="44.7396" lon="2.6351">
        <ele>537.6</ele>
        <time>2022-04-28T13:56:10Z</time>
      </trkpt>
      <trkpt lat="44.73963" lon="2.63509">
        <ele>538.4</ele>
        <time>2022-04-28T13:56:20Z</time>
      </trkpt>
      <trkpt lat="44.73964" lon="2.63509">
        <ele>538.4</ele>
        <time>2022-04-28T13:56:21Z</time>
      </trkpt>
      <trkpt lat="44.73966" lon="2.6351">
        <ele>538.4</ele>
        <time>2022-04-28T13:56:31Z</time>
      </trkpt>
      <trkpt lat="44.73964" lon="2.63509">
        <ele>538.4</ele>
        <time>2022-04-28T13:56:41Z</time>
      </trkpt>
      <trkpt lat="44.73962" lon="2.63509">
        <ele>538.4</ele>
        <time>2022-04-28T13:56:47Z</time>
      </trkpt>
      <trkpt lat="44.73964" lon="2.63504">
        <ele>538.4</ele>
        <time>2022-04-28T13:56:56Z</time>
      </trkpt>
      <trkpt lat="44.73964" lon="2.63502">
        <ele>538.4</ele>
        <time>2022-04-28T13:57:08Z</time>
      </trkpt>
      <trkpt lat="44.73957" lon="2.63502">
        <ele>538.4</ele>
        <time>2022-04-28T13:57:20Z</time>
      </trkpt>
      <trkpt lat="44.73956" lon="2.63504">
        <ele>538.4</ele>
        <time>2022-04-28T13:57:34Z</time>
      </trkpt>
      <trkpt lat="44.73953" lon="2.63514">
        <ele>538.4</ele>
        <time>2022-04-28T13:57:43Z</time>
      </trkpt>
      <trkpt lat="44.73952" lon="2.63525">
        <ele>538.2</ele>
        <time>2022-04-28T13:57:54Z</time>
      </trkpt>
      <trkpt lat="44.73953" lon="2.63525">
        <ele>538</ele>
        <time>2022-04-28T13:58:07Z</time>
      </trkpt>
      <trkpt lat="44.73952" lon="2.63524">
        <ele>537.4</ele>
        <time>2022-04-28T13:58:19Z</time>
      </trkpt>
      <trkpt lat="44.73952" lon="2.63524">
        <ele>538.4</ele>
        <time>2022-04-28T13:58:24Z</time>
      </trkpt>
      <trkpt lat="44.7395" lon="2.63523">
        <ele>538.4</ele>
        <time>2022-04-28T13:58:38Z</time>
      </trkpt>
      <trkpt lat="44.73951" lon="2.63522">
        <ele>538.2</ele>
        <time>2022-04-28T13:58:51Z</time>
      </trkpt>
      <trkpt lat="44.73953" lon="2.63526">
        <ele>538</ele>
        <time>2022-04-28T13:59:07Z</time>
      </trkpt>
      <trkpt lat="44.73953" lon="2.63521">
        <ele>538.2</ele>
        <time>2022-04-28T13:59:22Z</time>
      </trkpt>
      <trkpt lat="44.73951" lon="2.63506">
        <ele>538</ele>
        <time>2022-04-28T13:59:35Z</time>
      </trkpt>
      <trkpt lat="44.73948" lon="2.63504">
        <ele>537.8</ele>
        <time>2022-04-28T13:59:40Z</time>
      </trkpt>
      <trkpt lat="44.73946" lon="2.635">
        <ele>537.8</ele>
        <time>2022-04-28T13:59:44Z</time>
      </trkpt>
      <trkpt lat="44.73944" lon="2.63489">
        <ele>538.4</ele>
        <time>2022-04-28T13:59:55Z</time>
      </trkpt>
      <trkpt lat="44.73944" lon="2.63488">
        <ele>538.4</ele>
        <time>2022-04-28T14:00:08Z</time>
      </trkpt>
      <trkpt lat="44.73947" lon="2.63493">
        <ele>538.2</ele>
        <time>2022-04-28T14:00:24Z</time>
      </trkpt>
      <trkpt lat="44.73945" lon="2.63494">
        <ele>538</ele>
        <time>2022-04-28T14:00:41Z</time>
      </trkpt>
      <trkpt lat="44.73942" lon="2.6349">
        <ele>538.4</ele>
        <time>2022-04-28T14:00:52Z</time>
      </trkpt>
      <trkpt lat="44.73941" lon="2.63489">
        <ele>538.4</ele>
        <time>2022-04-28T14:00:54Z</time>
      </trkpt>
      <trkpt lat="44.73938" lon="2.63488">
        <ele>538.8</ele>
        <time>2022-04-28T14:00:58Z</time>
      </trkpt>
      <trkpt lat="44.73936" lon="2.63488">
        <ele>538.8</ele>
        <time>2022-04-28T14:01:04Z</time>
      </trkpt>
      <trkpt lat="44.73933" lon="2.63486">
        <ele>539.4</ele>
        <time>2022-04-28T14:01:09Z</time>
      </trkpt>
      <trkpt lat="44.73933" lon="2.63482">
        <ele>539.6</ele>
        <time>2022-04-28T14:01:16Z</time>
      </trkpt>
      <trkpt lat="44.73934" lon="2.63482">
        <ele>539.4</ele>
        <time>2022-04-28T14:01:24Z</time>
      </trkpt>
      <trkpt lat="44.73928" lon="2.63483">
        <ele>539.4</ele>
        <time>2022-04-28T14:01:32Z</time>
      </trkpt>
      <trkpt lat="44.73927" lon="2.63482">
        <ele>539.6</ele>
        <time>2022-04-28T14:01:35Z</time>
      </trkpt>
      <trkpt lat="44.73922" lon="2.63478">
        <ele>540</ele>
        <time>2022-04-28T14:01:41Z</time>
      </trkpt>
      <trkpt lat="44.73919" lon="2.63476">
        <ele>540.2</ele>
        <time>2022-04-28T14:01:45Z</time>
      </trkpt>
      <trkpt lat="44.73919" lon="2.63477">
        <ele>540.4</ele>
        <time>2022-04-28T14:01:48Z</time>
      </trkpt>
      <trkpt lat="44.73919" lon="2.63477">
        <ele>540.4</ele>
        <time>2022-04-28T14:01:50Z</time>
      </trkpt>
      <trkpt lat="44.73918" lon="2.63475">
        <ele>540.4</ele>
        <time>2022-04-28T14:01:54Z</time>
      </trkpt>
      <trkpt lat="44.73913" lon="2.63471">
        <ele>541.4</ele>
        <time>2022-04-28T14:02:00Z</time>
      </trkpt>
      <trkpt lat="44.7391" lon="2.63467">
        <ele>541.8</ele>
        <time>2022-04-28T14:02:05Z</time>
      </trkpt>
      <trkpt lat="44.73904" lon="2.63464">
        <ele>542.4</ele>
        <time>2022-04-28T14:02:11Z</time>
      </trkpt>
      <trkpt lat="44.73897" lon="2.63457">
        <ele>543.4</ele>
        <time>2022-04-28T14:02:19Z</time>
      </trkpt>
      <trkpt lat="44.73896" lon="2.63455">
        <ele>543.6</ele>
        <time>2022-04-28T14:02:21Z</time>
      </trkpt>
      <trkpt lat="44.73892" lon="2.63454">
        <ele>544.2</ele>
        <time>2022-04-28T14:02:27Z</time>
      </trkpt>
      <trkpt lat="44.7389" lon="2.63454">
        <ele>544</ele>
        <time>2022-04-28T14:02:30Z</time>
      </trkpt>
      <trkpt lat="44.73889" lon="2.63453">
        <ele>544</ele>
        <time>2022-04-28T14:02:31Z</time>
      </trkpt>
      <trkpt lat="44.73886" lon="2.63452">
        <ele>544.2</ele>
        <time>2022-04-28T14:02:34Z</time>
      </trkpt>
      <trkpt lat="44.73884" lon="2.63449">
        <ele>544.6</ele>
        <time>2022-04-28T14:02:38Z</time>
      </trkpt>
      <trkpt lat="44.73881" lon="2.63446">
        <ele>545.4</ele>
        <time>2022-04-28T14:02:43Z</time>
      </trkpt>
      <trkpt lat="44.73878" lon="2.63444">
        <ele>545.6</ele>
        <time>2022-04-28T14:02:47Z</time>
      </trkpt>
      <trkpt lat="44.73872" lon="2.63438">
        <ele>546.4</ele>
        <time>2022-04-28T14:02:57Z</time>
      </trkpt>
      <trkpt lat="44.73872" lon="2.63433">
        <ele>546.8</ele>
        <time>2022-04-28T14:03:02Z</time>
      </trkpt>
      <trkpt lat="44.73872" lon="2.63431">
        <ele>547</ele>
        <time>2022-04-28T14:03:05Z</time>
      </trkpt>
      <trkpt lat="44.73871" lon="2.6343">
        <ele>547.4</ele>
        <time>2022-04-28T14:03:07Z</time>
      </trkpt>
      <trkpt lat="44.73869" lon="2.63428">
        <ele>547.4</ele>
        <time>2022-04-28T14:03:10Z</time>
      </trkpt>
      <trkpt lat="44.73867" lon="2.6343">
        <ele>547.8</ele>
        <time>2022-04-28T14:03:17Z</time>
      </trkpt>
      <trkpt lat="44.73866" lon="2.63433">
        <ele>547.8</ele>
        <time>2022-04-28T14:03:20Z</time>
      </trkpt>
      <trkpt lat="44.73864" lon="2.6344">
        <ele>548.6</ele>
        <time>2022-04-28T14:03:33Z</time>
      </trkpt>
      <trkpt lat="44.73865" lon="2.63441">
        <ele>548.8</ele>
        <time>2022-04-28T14:03:35Z</time>
      </trkpt>
      <trkpt lat="44.73865" lon="2.63442">
        <ele>549</ele>
        <time>2022-04-28T14:03:46Z</time>
      </trkpt>
      <trkpt lat="44.73865" lon="2.63444">
        <ele>548.6</ele>
        <time>2022-04-28T14:03:54Z</time>
      </trkpt>
      <trkpt lat="44.73865" lon="2.63446">
        <ele>548.8</ele>
        <time>2022-04-28T14:05:08Z</time>
      </trkpt>
      <trkpt lat="44.73862" lon="2.63448">
        <ele>549</ele>
        <time>2022-04-28T14:05:14Z</time>
      </trkpt>
      <trkpt lat="44.73865" lon="2.63438">
        <ele>548.4</ele>
        <time>2022-04-28T14:05:26Z</time>
      </trkpt>
      <trkpt lat="44.73865" lon="2.63435">
        <ele>547.8</ele>
        <time>2022-04-28T14:05:28Z</time>
      </trkpt>
      <trkpt lat="44.73865" lon="2.6343">
        <ele>547.8</ele>
        <time>2022-04-28T14:05:31Z</time>
      </trkpt>
      <trkpt lat="44.7386" lon="2.63419">
        <ele>548.2</ele>
        <time>2022-04-28T14:05:38Z</time>
      </trkpt>
      <trkpt lat="44.73855" lon="2.63414">
        <ele>548.4</ele>
        <time>2022-04-28T14:05:45Z</time>
      </trkpt>
      <trkpt lat="44.73853" lon="2.6341">
        <ele>548.4</ele>
        <time>2022-04-28T14:05:50Z</time>
      </trkpt>
      <trkpt lat="44.73845" lon="2.63397">
        <ele>548.2</ele>
        <time>2022-04-28T14:06:03Z</time>
      </trkpt>
      <trkpt lat="44.73846" lon="2.63397">
        <ele>548.8</ele>
        <time>2022-04-28T14:06:08Z</time>
      </trkpt>
      <trkpt lat="44.73846" lon="2.63397">
        <ele>548.8</ele>
        <time>2022-04-28T14:06:13Z</time>
      </trkpt>
      <trkpt lat="44.73842" lon="2.63391">
        <ele>548</ele>
        <time>2022-04-28T14:06:21Z</time>
      </trkpt>
      <trkpt lat="44.73841" lon="2.63389">
        <ele>548</ele>
        <time>2022-04-28T14:06:23Z</time>
      </trkpt>
      <trkpt lat="44.73836" lon="2.63384">
        <ele>547.8</ele>
        <time>2022-04-28T14:06:31Z</time>
      </trkpt>
      <trkpt lat="44.73834" lon="2.63383">
        <ele>547.8</ele>
        <time>2022-04-28T14:06:33Z</time>
      </trkpt>
      <trkpt lat="44.73825" lon="2.63373">
        <ele>548</ele>
        <time>2022-04-28T14:06:49Z</time>
      </trkpt>
      <trkpt lat="44.7382" lon="2.63369">
        <ele>548.4</ele>
        <time>2022-04-28T14:07:01Z</time>
      </trkpt>
      <trkpt lat="44.73818" lon="2.63368">
        <ele>548.8</ele>
        <time>2022-04-28T14:07:11Z</time>
      </trkpt>
      <trkpt lat="44.73819" lon="2.63367">
        <ele>549.2</ele>
        <time>2022-04-28T14:07:14Z</time>
      </trkpt>
      <trkpt lat="44.73817" lon="2.63363">
        <ele>549.2</ele>
        <time>2022-04-28T14:07:27Z</time>
      </trkpt>
      <trkpt lat="44.7381" lon="2.6336">
        <ele>549.2</ele>
        <time>2022-04-28T14:07:41Z</time>
      </trkpt>
      <trkpt lat="44.73803" lon="2.63357">
        <ele>549.2</ele>
        <time>2022-04-28T14:07:48Z</time>
      </trkpt>
      <trkpt lat="44.73802" lon="2.63356">
        <ele>549.2</ele>
        <time>2022-04-28T14:07:50Z</time>
      </trkpt>
      <trkpt lat="44.738" lon="2.63354">
        <ele>549.2</ele>
        <time>2022-04-28T14:07:53Z</time>
      </trkpt>
      <trkpt lat="44.73798" lon="2.63352">
        <ele>549.2</ele>
        <time>2022-04-28T14:07:55Z</time>
      </trkpt>
      <trkpt lat="44.73783" lon="2.63338">
        <ele>549.4</ele>
        <time>2022-04-28T14:08:11Z</time>
      </trkpt>
      <trkpt lat="44.73781" lon="2.63326">
        <ele>549.2</ele>
        <time>2022-04-28T14:08:23Z</time>
      </trkpt>
      <trkpt lat="44.7378" lon="2.63326">
        <ele>550.2</ele>
        <time>2022-04-28T14:08:30Z</time>
      </trkpt>
      <trkpt lat="44.73779" lon="2.63326">
        <ele>549.8</ele>
        <time>2022-04-28T14:08:37Z</time>
      </trkpt>
      <trkpt lat="44.73778" lon="2.63326">
        <ele>549.6</ele>
        <time>2022-04-28T14:08:42Z</time>
      </trkpt>
      <trkpt lat="44.73778" lon="2.6333">
        <ele>549.8</ele>
        <time>2022-04-28T14:08:51Z</time>
      </trkpt>
      <trkpt lat="44.73769" lon="2.63335">
        <ele>550.4</ele>
        <time>2022-04-28T14:09:06Z</time>
      </trkpt>
      <trkpt lat="44.73764" lon="2.63337">
        <ele>551.2</ele>
        <time>2022-04-28T14:09:13Z</time>
      </trkpt>
      <trkpt lat="44.73759" lon="2.63339">
        <ele>552</ele>
        <time>2022-04-28T14:09:20Z</time>
      </trkpt>
      <trkpt lat="44.73757" lon="2.63339">
        <ele>552.2</ele>
        <time>2022-04-28T14:09:22Z</time>
      </trkpt>
      <trkpt lat="44.73754" lon="2.63339">
        <ele>552.4</ele>
        <time>2022-04-28T14:09:25Z</time>
      </trkpt>
      <trkpt lat="44.73751" lon="2.63339">
        <ele>552.4</ele>
        <time>2022-04-28T14:09:28Z</time>
      </trkpt>
      <trkpt lat="44.73748" lon="2.63338">
        <ele>552.2</ele>
        <time>2022-04-28T14:09:31Z</time>
      </trkpt>
      <trkpt lat="44.73742" lon="2.63336">
        <ele>552</ele>
        <time>2022-04-28T14:09:41Z</time>
      </trkpt>
      <trkpt lat="44.73739" lon="2.63336">
        <ele>551.6</ele>
        <time>2022-04-28T14:09:46Z</time>
      </trkpt>
      <trkpt lat="44.73737" lon="2.63335">
        <ele>551.6</ele>
        <time>2022-04-28T14:09:47Z</time>
      </trkpt>
      <trkpt lat="44.73734" lon="2.63333">
        <ele>551.4</ele>
        <time>2022-04-28T14:09:51Z</time>
      </trkpt>
      <trkpt lat="44.7373" lon="2.63329">
        <ele>551.2</ele>
        <time>2022-04-28T14:09:57Z</time>
      </trkpt>
      <trkpt lat="44.73729" lon="2.63328">
        <ele>551.2</ele>
        <time>2022-04-28T14:09:58Z</time>
      </trkpt>
      <trkpt lat="44.73719" lon="2.63318">
        <ele>551.6</ele>
        <time>2022-04-28T14:10:13Z</time>
      </trkpt>
      <trkpt lat="44.73708" lon="2.63302">
        <ele>551</ele>
        <time>2022-04-28T14:10:29Z</time>
      </trkpt>
      <trkpt lat="44.73698" lon="2.633">
        <ele>551.6</ele>
        <time>2022-04-28T14:10:42Z</time>
      </trkpt>
      <trkpt lat="44.73695" lon="2.63299">
        <ele>552.2</ele>
        <time>2022-04-28T14:10:47Z</time>
      </trkpt>
      <trkpt lat="44.73694" lon="2.63299">
        <ele>552.2</ele>
        <time>2022-04-28T14:10:48Z</time>
      </trkpt>
      <trkpt lat="44.73693" lon="2.63298">
        <ele>552.6</ele>
        <time>2022-04-28T14:10:53Z</time>
      </trkpt>
      <trkpt lat="44.73694" lon="2.63298">
        <ele>553.4</ele>
        <time>2022-04-28T14:11:04Z</time>
      </trkpt>
      <trkpt lat="44.73694" lon="2.633">
        <ele>553</ele>
        <time>2022-04-28T14:11:11Z</time>
      </trkpt>
      <trkpt lat="44.73696" lon="2.63296">
        <ele>552.4</ele>
        <time>2022-04-28T14:11:27Z</time>
      </trkpt>
      <trkpt lat="44.73696" lon="2.63292">
        <ele>552.4</ele>
        <time>2022-04-28T14:11:30Z</time>
      </trkpt>
      <trkpt lat="44.73695" lon="2.63287">
        <ele>552.2</ele>
        <time>2022-04-28T14:11:34Z</time>
      </trkpt>
      <trkpt lat="44.73694" lon="2.63283">
        <ele>551.4</ele>
        <time>2022-04-28T14:11:37Z</time>
      </trkpt>
      <trkpt lat="44.73693" lon="2.63282">
        <ele>551.2</ele>
        <time>2022-04-28T14:11:38Z</time>
      </trkpt>
      <trkpt lat="44.73692" lon="2.63281">
        <ele>551</ele>
        <time>2022-04-28T14:11:40Z</time>
      </trkpt>
      <trkpt lat="44.73689" lon="2.63273">
        <ele>550.6</ele>
        <time>2022-04-28T14:11:49Z</time>
      </trkpt>
      <trkpt lat="44.73684" lon="2.63265">
        <ele>550.2</ele>
        <time>2022-04-28T14:11:58Z</time>
      </trkpt>
      <trkpt lat="44.73681" lon="2.63263">
        <ele>549.8</ele>
        <time>2022-04-28T14:12:02Z</time>
      </trkpt>
      <trkpt lat="44.73679" lon="2.63259">
        <ele>549.2</ele>
        <time>2022-04-28T14:12:10Z</time>
      </trkpt>
      <trkpt lat="44.73677" lon="2.63256">
        <ele>549.2</ele>
        <time>2022-04-28T14:12:14Z</time>
      </trkpt>
      <trkpt lat="44.73666" lon="2.63247">
        <ele>548.4</ele>
        <time>2022-04-28T14:12:26Z</time>
      </trkpt>
      <trkpt lat="44.73665" lon="2.63246">
        <ele>548.4</ele>
        <time>2022-04-28T14:12:27Z</time>
      </trkpt>
      <trkpt lat="44.73663" lon="2.63244">
        <ele>547.8</ele>
        <time>2022-04-28T14:12:31Z</time>
      </trkpt>
      <trkpt lat="44.73662" lon="2.63242">
        <ele>547.8</ele>
        <time>2022-04-28T14:12:34Z</time>
      </trkpt>
      <trkpt lat="44.73662" lon="2.63242">
        <ele>547.8</ele>
        <time>2022-04-28T14:12:38Z</time>
      </trkpt>
      <trkpt lat="44.73658" lon="2.63237">
        <ele>547.4</ele>
        <time>2022-04-28T14:12:49Z</time>
      </trkpt>
      <trkpt lat="44.73655" lon="2.63234">
        <ele>546.8</ele>
        <time>2022-04-28T14:12:53Z</time>
      </trkpt>
      <trkpt lat="44.73652" lon="2.63231">
        <ele>546.6</ele>
        <time>2022-04-28T14:12:58Z</time>
      </trkpt>
      <trkpt lat="44.7365" lon="2.63228">
        <ele>546.4</ele>
        <time>2022-04-28T14:13:04Z</time>
      </trkpt>
      <trkpt lat="44.73645" lon="2.63218">
        <ele>546</ele>
        <time>2022-04-28T14:13:14Z</time>
      </trkpt>
      <trkpt lat="44.73644" lon="2.63216">
        <ele>545.8</ele>
        <time>2022-04-28T14:13:16Z</time>
      </trkpt>
      <trkpt lat="44.73639" lon="2.63207">
        <ele>544.8</ele>
        <time>2022-04-28T14:13:26Z</time>
      </trkpt>
      <trkpt lat="44.73637" lon="2.63206">
        <ele>544.6</ele>
        <time>2022-04-28T14:13:28Z</time>
      </trkpt>
      <trkpt lat="44.73634" lon="2.63197">
        <ele>543.6</ele>
        <time>2022-04-28T14:13:38Z</time>
      </trkpt>
      <trkpt lat="44.73633" lon="2.63196">
        <ele>543.6</ele>
        <time>2022-04-28T14:13:39Z</time>
      </trkpt>
      <trkpt lat="44.73632" lon="2.63191">
        <ele>542.6</ele>
        <time>2022-04-28T14:13:45Z</time>
      </trkpt>
      <trkpt lat="44.73629" lon="2.63185">
        <ele>541.6</ele>
        <time>2022-04-28T14:13:53Z</time>
      </trkpt>
      <trkpt lat="44.73624" lon="2.63181">
        <ele>540.6</ele>
        <time>2022-04-28T14:14:02Z</time>
      </trkpt>
      <trkpt lat="44.73622" lon="2.63181">
        <ele>540.6</ele>
        <time>2022-04-28T14:14:05Z</time>
      </trkpt>
      <trkpt lat="44.7362" lon="2.63191">
        <ele>540.6</ele>
        <time>2022-04-28T14:14:14Z</time>
      </trkpt>
      <trkpt lat="44.73621" lon="2.63194">
        <ele>541</ele>
        <time>2022-04-28T14:14:23Z</time>
      </trkpt>
      <trkpt lat="44.73623" lon="2.63183">
        <ele>540.6</ele>
        <time>2022-04-28T14:14:33Z</time>
      </trkpt>
      <trkpt lat="44.73625" lon="2.63176">
        <ele>541</ele>
        <time>2022-04-28T14:14:45Z</time>
      </trkpt>
      <trkpt lat="44.73627" lon="2.6318">
        <ele>541</ele>
        <time>2022-04-28T14:14:58Z</time>
      </trkpt>
      <trkpt lat="44.73627" lon="2.63186">
        <ele>541.2</ele>
        <time>2022-04-28T14:15:08Z</time>
      </trkpt>
      <trkpt lat="44.73627" lon="2.63187">
        <ele>541.6</ele>
        <time>2022-04-28T14:15:10Z</time>
      </trkpt>
      <trkpt lat="44.73629" lon="2.63196">
        <ele>542.8</ele>
        <time>2022-04-28T14:15:18Z</time>
      </trkpt>
      <trkpt lat="44.73631" lon="2.63199">
        <ele>543.2</ele>
        <time>2022-04-28T14:15:21Z</time>
      </trkpt>
      <trkpt lat="44.73634" lon="2.63202">
        <ele>543.8</ele>
        <time>2022-04-28T14:15:25Z</time>
      </trkpt>
      <trkpt lat="44.73637" lon="2.63208">
        <ele>545.2</ele>
        <time>2022-04-28T14:15:31Z</time>
      </trkpt>
      <trkpt lat="44.73638" lon="2.6321">
        <ele>545.2</ele>
        <time>2022-04-28T14:15:33Z</time>
      </trkpt>
      <trkpt lat="44.73643" lon="2.63221">
        <ele>546.2</ele>
        <time>2022-04-28T14:15:44Z</time>
      </trkpt>
      <trkpt lat="44.73651" lon="2.63234">
        <ele>547.2</ele>
        <time>2022-04-28T14:15:58Z</time>
      </trkpt>
      <trkpt lat="44.73652" lon="2.63235">
        <ele>547.4</ele>
        <time>2022-04-28T14:16:00Z</time>
      </trkpt>
      <trkpt lat="44.7366" lon="2.63246">
        <ele>548</ele>
        <time>2022-04-28T14:16:14Z</time>
      </trkpt>
      <trkpt lat="44.73663" lon="2.63249">
        <ele>548.4</ele>
        <time>2022-04-28T14:16:18Z</time>
      </trkpt>
      <trkpt lat="44.73667" lon="2.63255">
        <ele>549.4</ele>
        <time>2022-04-28T14:16:25Z</time>
      </trkpt>
      <trkpt lat="44.73673" lon="2.63258">
        <ele>550</ele>
        <time>2022-04-28T14:16:32Z</time>
      </trkpt>
      <trkpt lat="44.73674" lon="2.63258">
        <ele>550</ele>
        <time>2022-04-28T14:16:33Z</time>
      </trkpt>
      <trkpt lat="44.73675" lon="2.63259">
        <ele>550</ele>
        <time>2022-04-28T14:16:35Z</time>
      </trkpt>
      <trkpt lat="44.7368" lon="2.63265">
        <ele>550.2</ele>
        <time>2022-04-28T14:16:43Z</time>
      </trkpt>
      <trkpt lat="44.73682" lon="2.63269">
        <ele>550.4</ele>
        <time>2022-04-28T14:16:47Z</time>
      </trkpt>
      <trkpt lat="44.73689" lon="2.63279">
        <ele>551.4</ele>
        <time>2022-04-28T14:16:57Z</time>
      </trkpt>
      <trkpt lat="44.73689" lon="2.6328">
        <ele>551.6</ele>
        <time>2022-04-28T14:16:59Z</time>
      </trkpt>
      <trkpt lat="44.73694" lon="2.6329">
        <ele>552.4</ele>
        <time>2022-04-28T14:17:09Z</time>
      </trkpt>
      <trkpt lat="44.73701" lon="2.63302">
        <ele>551.4</ele>
        <time>2022-04-28T14:17:22Z</time>
      </trkpt>
      <trkpt lat="44.73702" lon="2.63303">
        <ele>551.4</ele>
        <time>2022-04-28T14:17:23Z</time>
      </trkpt>
      <trkpt lat="44.73712" lon="2.63313">
        <ele>551.4</ele>
        <time>2022-04-28T14:17:35Z</time>
      </trkpt>
      <trkpt lat="44.73724" lon="2.63322">
        <ele>550.8</ele>
        <time>2022-04-28T14:17:50Z</time>
      </trkpt>
      <trkpt lat="44.73727" lon="2.63327">
        <ele>550.4</ele>
        <time>2022-04-28T14:17:57Z</time>
      </trkpt>
      <trkpt lat="44.73727" lon="2.63327">
        <ele>550.4</ele>
        <time>2022-04-28T14:18:00Z</time>
      </trkpt>
      <trkpt lat="44.73728" lon="2.63328">
        <ele>550</ele>
        <time>2022-04-28T14:18:02Z</time>
      </trkpt>
      <trkpt lat="44.73735" lon="2.63333">
        <ele>550</ele>
        <time>2022-04-28T14:18:10Z</time>
      </trkpt>
      <trkpt lat="44.73737" lon="2.63333">
        <ele>551.4</ele>
        <time>2022-04-28T14:18:11Z</time>
      </trkpt>
      <trkpt lat="44.73739" lon="2.63334">
        <ele>551.4</ele>
        <time>2022-04-28T14:18:14Z</time>
      </trkpt>
      <trkpt lat="44.73748" lon="2.63342">
        <ele>552.6</ele>
        <time>2022-04-28T14:18:27Z</time>
      </trkpt>
      <trkpt lat="44.73749" lon="2.63342">
        <ele>552.6</ele>
        <time>2022-04-28T14:18:28Z</time>
      </trkpt>
      <trkpt lat="44.7375" lon="2.63343">
        <ele>552.8</ele>
        <time>2022-04-28T14:18:30Z</time>
      </trkpt>
      <trkpt lat="44.73753" lon="2.63353">
        <ele>552.8</ele>
        <time>2022-04-28T14:18:40Z</time>
      </trkpt>
      <trkpt lat="44.73753" lon="2.63368">
        <ele>552.8</ele>
        <time>2022-04-28T14:18:56Z</time>
      </trkpt>
      <trkpt lat="44.73757" lon="2.63372">
        <ele>551.6</ele>
        <time>2022-04-28T14:19:07Z</time>
      </trkpt>
      <trkpt lat="44.73757" lon="2.63373">
        <ele>551.6</ele>
        <time>2022-04-28T14:19:08Z</time>
      </trkpt>
      <trkpt lat="44.73764" lon="2.63379">
        <ele>552.6</ele>
        <time>2022-04-28T14:19:19Z</time>
      </trkpt>
      <trkpt lat="44.73769" lon="2.6338">
        <ele>553.6</ele>
        <time>2022-04-28T14:19:25Z</time>
      </trkpt>
      <trkpt lat="44.73773" lon="2.63379">
        <ele>553.8</ele>
        <time>2022-04-28T14:19:27Z</time>
      </trkpt>
      <trkpt lat="44.73777" lon="2.63379">
        <ele>554</ele>
        <time>2022-04-28T14:19:31Z</time>
      </trkpt>
      <trkpt lat="44.73777" lon="2.63383">
        <ele>554.6</ele>
        <time>2022-04-28T14:19:36Z</time>
      </trkpt>
      <trkpt lat="44.73777" lon="2.63383">
        <ele>554.6</ele>
        <time>2022-04-28T14:19:37Z</time>
      </trkpt>
      <trkpt lat="44.73776" lon="2.63386">
        <ele>554.6</ele>
        <time>2022-04-28T14:19:49Z</time>
      </trkpt>
      <trkpt lat="44.73777" lon="2.63391">
        <ele>553.8</ele>
        <time>2022-04-28T14:20:03Z</time>
      </trkpt>
      <trkpt lat="44.7378" lon="2.63393">
        <ele>553.6</ele>
        <time>2022-04-28T14:20:08Z</time>
      </trkpt>
      <trkpt lat="44.73784" lon="2.63395">
        <ele>553.6</ele>
        <time>2022-04-28T14:20:15Z</time>
      </trkpt>
      <trkpt lat="44.73785" lon="2.63403">
        <ele>553.6</ele>
        <time>2022-04-28T14:20:22Z</time>
      </trkpt>
      <trkpt lat="44.73786" lon="2.63413">
        <ele>554.2</ele>
        <time>2022-04-28T14:20:28Z</time>
      </trkpt>
      <trkpt lat="44.73786" lon="2.63414">
        <ele>554.2</ele>
        <time>2022-04-28T14:20:29Z</time>
      </trkpt>
      <trkpt lat="44.73789" lon="2.63418">
        <ele>553.8</ele>
        <time>2022-04-28T14:20:34Z</time>
      </trkpt>
      <trkpt lat="44.7379" lon="2.63419">
        <ele>553.8</ele>
        <time>2022-04-28T14:20:36Z</time>
      </trkpt>
      <trkpt lat="44.73791" lon="2.6342">
        <ele>553.8</ele>
        <time>2022-04-28T14:20:38Z</time>
      </trkpt>
      <trkpt lat="44.73793" lon="2.63423">
        <ele>553.6</ele>
        <time>2022-04-28T14:20:41Z</time>
      </trkpt>
      <trkpt lat="44.73795" lon="2.63424">
        <ele>553.6</ele>
        <time>2022-04-28T14:20:43Z</time>
      </trkpt>
      <trkpt lat="44.73797" lon="2.63426">
        <ele>553.4</ele>
        <time>2022-04-28T14:20:45Z</time>
      </trkpt>
      <trkpt lat="44.73802" lon="2.63435">
        <ele>553.6</ele>
        <time>2022-04-28T14:20:55Z</time>
      </trkpt>
      <trkpt lat="44.73804" lon="2.6344">
        <ele>553.4</ele>
        <time>2022-04-28T14:21:00Z</time>
      </trkpt>
      <trkpt lat="44.73805" lon="2.63443">
        <ele>553</ele>
        <time>2022-04-28T14:21:05Z</time>
      </trkpt>
      <trkpt lat="44.73806" lon="2.63443">
        <ele>553</ele>
        <time>2022-04-28T14:21:06Z</time>
      </trkpt>
      <trkpt lat="44.73807" lon="2.63443">
        <ele>552.6</ele>
        <time>2022-04-28T14:21:09Z</time>
      </trkpt>
      <trkpt lat="44.7381" lon="2.63446">
        <ele>553.2</ele>
        <time>2022-04-28T14:21:19Z</time>
      </trkpt>
      <trkpt lat="44.73803" lon="2.63439">
        <ele>553</ele>
        <time>2022-04-28T14:21:28Z</time>
      </trkpt>
      <trkpt lat="44.73803" lon="2.63439">
        <ele>553</ele>
        <time>2022-04-28T14:21:29Z</time>
      </trkpt>
      <trkpt lat="44.73802" lon="2.63436">
        <ele>553.6</ele>
        <time>2022-04-28T14:21:33Z</time>
      </trkpt>
      <trkpt lat="44.73801" lon="2.63437">
        <ele>553.8</ele>
        <time>2022-04-28T14:21:37Z</time>
      </trkpt>
      <trkpt lat="44.738" lon="2.63437">
        <ele>553.6</ele>
        <time>2022-04-28T14:21:53Z</time>
      </trkpt>
      <trkpt lat="44.73801" lon="2.63437">
        <ele>553.4</ele>
        <time>2022-04-28T14:22:10Z</time>
      </trkpt>
      <trkpt lat="44.73802" lon="2.63438">
        <ele>553.6</ele>
        <time>2022-04-28T14:22:28Z</time>
      </trkpt>
      <trkpt lat="44.73802" lon="2.63439">
        <ele>553.4</ele>
        <time>2022-04-28T14:22:43Z</time>
      </trkpt>
      <trkpt lat="44.73802" lon="2.63438">
        <ele>553.4</ele>
        <time>2022-04-28T14:23:02Z</time>
      </trkpt>
      <trkpt lat="44.73802" lon="2.63432">
        <ele>553.6</ele>
        <time>2022-04-28T14:23:15Z</time>
      </trkpt>
      <trkpt lat="44.73799" lon="2.63427">
        <ele>553.6</ele>
        <time>2022-04-28T14:23:20Z</time>
      </trkpt>
      <trkpt lat="44.73798" lon="2.63427">
        <ele>553.4</ele>
        <time>2022-04-28T14:23:22Z</time>
      </trkpt>
      <trkpt lat="44.73798" lon="2.63426">
        <ele>553.2</ele>
        <time>2022-04-28T14:23:24Z</time>
      </trkpt>
      <trkpt lat="44.73789" lon="2.6342">
        <ele>553.6</ele>
        <time>2022-04-28T14:23:33Z</time>
      </trkpt>
      <trkpt lat="44.73777" lon="2.63401">
        <ele>553.2</ele>
        <time>2022-04-28T14:23:49Z</time>
      </trkpt>
      <trkpt lat="44.73765" lon="2.63385">
        <ele>553.2</ele>
        <time>2022-04-28T14:24:05Z</time>
      </trkpt>
      <trkpt lat="44.73764" lon="2.63382">
        <ele>552.4</ele>
        <time>2022-04-28T14:24:09Z</time>
      </trkpt>
      <trkpt lat="44.73762" lon="2.6338">
        <ele>552</ele>
        <time>2022-04-28T14:24:14Z</time>
      </trkpt>
      <trkpt lat="44.73763" lon="2.63379">
        <ele>552.2</ele>
        <time>2022-04-28T14:24:19Z</time>
      </trkpt>
      <trkpt lat="44.73766" lon="2.6338">
        <ele>552.6</ele>
        <time>2022-04-28T14:24:22Z</time>
      </trkpt>
      <trkpt lat="44.73767" lon="2.6338">
        <ele>553</ele>
        <time>2022-04-28T14:24:24Z</time>
      </trkpt>
      <trkpt lat="44.73769" lon="2.6338">
        <ele>553.4</ele>
        <time>2022-04-28T14:24:27Z</time>
      </trkpt>
      <trkpt lat="44.7377" lon="2.6338">
        <ele>553.6</ele>
        <time>2022-04-28T14:24:32Z</time>
      </trkpt>
      <trkpt lat="44.73764" lon="2.63374">
        <ele>552.6</ele>
        <time>2022-04-28T14:24:45Z</time>
      </trkpt>
      <trkpt lat="44.73764" lon="2.6337">
        <ele>552.4</ele>
        <time>2022-04-28T14:24:47Z</time>
      </trkpt>
      <trkpt lat="44.73764" lon="2.6337">
        <ele>552.4</ele>
        <time>2022-04-28T14:24:48Z</time>
      </trkpt>
      <trkpt lat="44.7376" lon="2.63364">
        <ele>552</ele>
        <time>2022-04-28T14:24:55Z</time>
      </trkpt>
      <trkpt lat="44.7376" lon="2.63362">
        <ele>552.4</ele>
        <time>2022-04-28T14:24:57Z</time>
      </trkpt>
      <trkpt lat="44.73758" lon="2.63363">
        <ele>552.4</ele>
        <time>2022-04-28T14:25:11Z</time>
      </trkpt>
      <trkpt lat="44.73757" lon="2.63354">
        <ele>552.8</ele>
        <time>2022-04-28T14:25:26Z</time>
      </trkpt>
      <trkpt lat="44.73754" lon="2.63352">
        <ele>552.8</ele>
        <time>2022-04-28T14:25:39Z</time>
      </trkpt>
      <trkpt lat="44.73755" lon="2.63344">
        <ele>552.8</ele>
        <time>2022-04-28T14:25:50Z</time>
      </trkpt>
      <trkpt lat="44.73757" lon="2.63341">
        <ele>552.8</ele>
        <time>2022-04-28T14:25:52Z</time>
      </trkpt>
      <trkpt lat="44.73763" lon="2.63337">
        <ele>551.2</ele>
        <time>2022-04-28T14:25:59Z</time>
      </trkpt>
      <trkpt lat="44.73769" lon="2.63333">
        <ele>550.8</ele>
        <time>2022-04-28T14:26:06Z</time>
      </trkpt>
      <trkpt lat="44.73779" lon="2.63331">
        <ele>550.6</ele>
        <time>2022-04-28T14:26:18Z</time>
      </trkpt>
      <trkpt lat="44.73788" lon="2.63335">
        <ele>550.4</ele>
        <time>2022-04-28T14:26:30Z</time>
      </trkpt>
      <trkpt lat="44.73789" lon="2.63337">
        <ele>550.4</ele>
        <time>2022-04-28T14:26:33Z</time>
      </trkpt>
      <trkpt lat="44.73792" lon="2.63346">
        <ele>550.2</ele>
        <time>2022-04-28T14:26:42Z</time>
      </trkpt>
      <trkpt lat="44.73794" lon="2.63351">
        <ele>550.4</ele>
        <time>2022-04-28T14:26:47Z</time>
      </trkpt>
      <trkpt lat="44.738" lon="2.63362">
        <ele>549.8</ele>
        <time>2022-04-28T14:27:01Z</time>
      </trkpt>
      <trkpt lat="44.73801" lon="2.63364">
        <ele>549.8</ele>
        <time>2022-04-28T14:27:04Z</time>
      </trkpt>
      <trkpt lat="44.73806" lon="2.63371">
        <ele>551.2</ele>
        <time>2022-04-28T14:27:15Z</time>
      </trkpt>
      <trkpt lat="44.73808" lon="2.63375">
        <ele>552.2</ele>
        <time>2022-04-28T14:27:19Z</time>
      </trkpt>
      <trkpt lat="44.7381" lon="2.63379">
        <ele>553.4</ele>
        <time>2022-04-28T14:27:27Z</time>
      </trkpt>
      <trkpt lat="44.73811" lon="2.63381">
        <ele>553.4</ele>
        <time>2022-04-28T14:27:30Z</time>
      </trkpt>
      <trkpt lat="44.7381" lon="2.63385">
        <ele>554</ele>
        <time>2022-04-28T14:27:44Z</time>
      </trkpt>
      <trkpt lat="44.73812" lon="2.63391">
        <ele>554.4</ele>
        <time>2022-04-28T14:27:53Z</time>
      </trkpt>
      <trkpt lat="44.73813" lon="2.63393">
        <ele>554.6</ele>
        <time>2022-04-28T14:27:57Z</time>
      </trkpt>
      <trkpt lat="44.73817" lon="2.63398">
        <ele>555.4</ele>
        <time>2022-04-28T14:28:07Z</time>
      </trkpt>
      <trkpt lat="44.73821" lon="2.63401">
        <ele>555.8</ele>
        <time>2022-04-28T14:28:11Z</time>
      </trkpt>
      <trkpt lat="44.73825" lon="2.63403">
        <ele>556</ele>
        <time>2022-04-28T14:28:17Z</time>
      </trkpt>
      <trkpt lat="44.73827" lon="2.63406">
        <ele>556</ele>
        <time>2022-04-28T14:28:21Z</time>
      </trkpt>
      <trkpt lat="44.7383" lon="2.63409">
        <ele>556.4</ele>
        <time>2022-04-28T14:28:25Z</time>
      </trkpt>
      <trkpt lat="44.73833" lon="2.63411">
        <ele>556.6</ele>
        <time>2022-04-28T14:28:28Z</time>
      </trkpt>
      <trkpt lat="44.73834" lon="2.63413">
        <ele>557.4</ele>
        <time>2022-04-28T14:28:37Z</time>
      </trkpt>
      <trkpt lat="44.73834" lon="2.63412">
        <ele>557.4</ele>
        <time>2022-04-28T14:28:38Z</time>
      </trkpt>
      <trkpt lat="44.73832" lon="2.63415">
        <ele>556.8</ele>
        <time>2022-04-28T14:28:51Z</time>
      </trkpt>
      <trkpt lat="44.73831" lon="2.63415">
        <ele>558.6</ele>
        <time>2022-04-28T14:28:57Z</time>
      </trkpt>
      <trkpt lat="44.73831" lon="2.63416">
        <ele>558.2</ele>
        <time>2022-04-28T14:29:03Z</time>
      </trkpt>
      <trkpt lat="44.73823" lon="2.63419">
        <ele>558.6</ele>
        <time>2022-04-28T14:29:13Z</time>
      </trkpt>
      <trkpt lat="44.73818" lon="2.63424">
        <ele>558.6</ele>
        <time>2022-04-28T14:29:21Z</time>
      </trkpt>
      <trkpt lat="44.73817" lon="2.63426">
        <ele>558.8</ele>
        <time>2022-04-28T14:29:26Z</time>
      </trkpt>
      <trkpt lat="44.73818" lon="2.63429">
        <ele>559.2</ele>
        <time>2022-04-28T14:29:43Z</time>
      </trkpt>
      <trkpt lat="44.73818" lon="2.63427">
        <ele>558.8</ele>
        <time>2022-04-28T14:30:02Z</time>
      </trkpt>
      <trkpt lat="44.73817" lon="2.63417">
        <ele>559</ele>
        <time>2022-04-28T14:30:12Z</time>
      </trkpt>
      <trkpt lat="44.73816" lon="2.63415">
        <ele>559.2</ele>
        <time>2022-04-28T14:30:15Z</time>
      </trkpt>
      <trkpt lat="44.73815" lon="2.63414">
        <ele>559.8</ele>
        <time>2022-04-28T14:30:18Z</time>
      </trkpt>
      <trkpt lat="44.73814" lon="2.63413">
        <ele>560</ele>
        <time>2022-04-28T14:30:20Z</time>
      </trkpt>
      <trkpt lat="44.73812" lon="2.63411">
        <ele>560.8</ele>
        <time>2022-04-28T14:30:28Z</time>
      </trkpt>
      <trkpt lat="44.73812" lon="2.63408">
        <ele>560.6</ele>
        <time>2022-04-28T14:30:47Z</time>
      </trkpt>
      <trkpt lat="44.73809" lon="2.63405">
        <ele>560.8</ele>
        <time>2022-04-28T14:30:56Z</time>
      </trkpt>
      <trkpt lat="44.73809" lon="2.63406">
        <ele>561</ele>
        <time>2022-04-28T14:30:58Z</time>
      </trkpt>
      <trkpt lat="44.73809" lon="2.63405">
        <ele>560</ele>
        <time>2022-04-28T14:31:12Z</time>
      </trkpt>
      <trkpt lat="44.73807" lon="2.6341">
        <ele>560</ele>
        <time>2022-04-28T14:31:29Z</time>
      </trkpt>
      <trkpt lat="44.73806" lon="2.63411">
        <ele>561.4</ele>
        <time>2022-04-28T14:31:40Z</time>
      </trkpt>
      <trkpt lat="44.73816" lon="2.63414">
        <ele>561.6</ele>
        <time>2022-04-28T14:31:52Z</time>
      </trkpt>
      <trkpt lat="44.73814" lon="2.63409">
        <ele>561.8</ele>
        <time>2022-04-28T14:31:57Z</time>
      </trkpt>
      <trkpt lat="44.73813" lon="2.63407">
        <ele>560.6</ele>
        <time>2022-04-28T14:31:58Z</time>
      </trkpt>
      <trkpt lat="44.73811" lon="2.63402">
        <ele>561</ele>
        <time>2022-04-28T14:32:05Z</time>
      </trkpt>
      <trkpt lat="44.73807" lon="2.63413">
        <ele>559.8</ele>
        <time>2022-04-28T14:32:40Z</time>
      </trkpt>
      <trkpt lat="44.73807" lon="2.63416">
        <ele>559.6</ele>
        <time>2022-04-28T14:32:47Z</time>
      </trkpt>
      <trkpt lat="44.73811" lon="2.63423">
        <ele>559.8</ele>
        <time>2022-04-28T14:32:58Z</time>
      </trkpt>
      <trkpt lat="44.73811" lon="2.63423">
        <ele>560.6</ele>
        <time>2022-04-28T14:33:11Z</time>
      </trkpt>
      <trkpt lat="44.73795" lon="2.63396">
        <ele>560.2</ele>
        <time>2022-04-28T14:34:22Z</time>
      </trkpt>
      <trkpt lat="44.73797" lon="2.63396">
        <ele>560.2</ele>
        <time>2022-04-28T14:34:25Z</time>
      </trkpt>
      <trkpt lat="44.73806" lon="2.63396">
        <ele>560.2</ele>
        <time>2022-04-28T14:34:40Z</time>
      </trkpt>
      <trkpt lat="44.73809" lon="2.6344">
        <ele>560.2</ele>
        <time>2022-04-28T14:35:49Z</time>
      </trkpt>
      <trkpt lat="44.73801" lon="2.63404">
        <ele>562.6</ele>
        <time>2022-04-28T14:35:50Z</time>
      </trkpt>
      <trkpt lat="44.73795" lon="2.63386">
        <ele>562.6</ele>
        <time>2022-04-28T14:35:57Z</time>
      </trkpt>
      <trkpt lat="44.73795" lon="2.63382">
        <ele>562.8</ele>
        <time>2022-04-28T14:36:14Z</time>
      </trkpt>
      <trkpt lat="44.73797" lon="2.63386">
        <ele>562</ele>
        <time>2022-04-28T14:36:29Z</time>
      </trkpt>
      <trkpt lat="44.73801" lon="2.63381">
        <ele>562.2</ele>
        <time>2022-04-28T14:36:41Z</time>
      </trkpt>
      <trkpt lat="44.73803" lon="2.63383">
        <ele>562.2</ele>
        <time>2022-04-28T14:36:53Z</time>
      </trkpt>
      <trkpt lat="44.73801" lon="2.63384">
        <ele>562.2</ele>
        <time>2022-04-28T14:37:05Z</time>
      </trkpt>
      <trkpt lat="44.73799" lon="2.63386">
        <ele>562.2</ele>
        <time>2022-04-28T14:37:18Z</time>
      </trkpt>
      <trkpt lat="44.73798" lon="2.63388">
        <ele>562.2</ele>
        <time>2022-04-28T14:37:30Z</time>
      </trkpt>
      <trkpt lat="44.73795" lon="2.63397">
        <ele>562.2</ele>
        <time>2022-04-28T14:37:44Z</time>
      </trkpt>
      <trkpt lat="44.73795" lon="2.63407">
        <ele>562.2</ele>
        <time>2022-04-28T14:38:00Z</time>
      </trkpt>
      <trkpt lat="44.73801" lon="2.634">
        <ele>562.2</ele>
        <time>2022-04-28T14:38:10Z</time>
      </trkpt>
      <trkpt lat="44.73807" lon="2.63394">
        <ele>562.2</ele>
        <time>2022-04-28T14:38:27Z</time>
      </trkpt>
      <trkpt lat="44.73802" lon="2.63401">
        <ele>562.2</ele>
        <time>2022-04-28T14:38:39Z</time>
      </trkpt>
      <trkpt lat="44.73795" lon="2.63408">
        <ele>562.2</ele>
        <time>2022-04-28T14:38:54Z</time>
      </trkpt>
      <trkpt lat="44.73794" lon="2.63414">
        <ele>562.2</ele>
        <time>2022-04-28T14:39:10Z</time>
      </trkpt>
      <trkpt lat="44.73794" lon="2.63412">
        <ele>562.2</ele>
        <time>2022-04-28T14:39:32Z</time>
      </trkpt>
      <trkpt lat="44.73802" lon="2.63405">
        <ele>562.2</ele>
        <time>2022-04-28T14:39:43Z</time>
      </trkpt>
      <trkpt lat="44.738" lon="2.63412">
        <ele>562.2</ele>
        <time>2022-04-28T14:39:59Z</time>
      </trkpt>
      <trkpt lat="44.73797" lon="2.6341">
        <ele>562.2</ele>
        <time>2022-04-28T14:40:14Z</time>
      </trkpt>
      <trkpt lat="44.73798" lon="2.63392">
        <ele>562.2</ele>
        <time>2022-04-28T14:40:23Z</time>
      </trkpt>
      <trkpt lat="44.73797" lon="2.63389">
        <ele>562.2</ele>
        <time>2022-04-28T14:40:24Z</time>
      </trkpt>
      <trkpt lat="44.73798" lon="2.63386">
        <ele>562.4</ele>
        <time>2022-04-28T14:40:27Z</time>
      </trkpt>
      <trkpt lat="44.73798" lon="2.63385">
        <ele>562.4</ele>
        <time>2022-04-28T14:40:28Z</time>
      </trkpt>
      <trkpt lat="44.73799" lon="2.63387">
        <ele>562.4</ele>
        <time>2022-04-28T14:40:35Z</time>
      </trkpt>
      <trkpt lat="44.73797" lon="2.63379">
        <ele>562.8</ele>
        <time>2022-04-28T14:40:45Z</time>
      </trkpt>
      <trkpt lat="44.73797" lon="2.63377">
        <ele>563</ele>
        <time>2022-04-28T14:40:47Z</time>
      </trkpt>
      <trkpt lat="44.73797" lon="2.63369">
        <ele>563.6</ele>
        <time>2022-04-28T14:40:53Z</time>
      </trkpt>
      <trkpt lat="44.73797" lon="2.63369">
        <ele>563.6</ele>
        <time>2022-04-28T14:40:54Z</time>
      </trkpt>
      <trkpt lat="44.73797" lon="2.63369">
        <ele>563.6</ele>
        <time>2022-04-28T14:40:56Z</time>
      </trkpt>
      <trkpt lat="44.73796" lon="2.63377">
        <ele>563.6</ele>
        <time>2022-04-28T14:41:07Z</time>
      </trkpt>
      <trkpt lat="44.73796" lon="2.63379">
        <ele>563.6</ele>
        <time>2022-04-28T14:41:08Z</time>
      </trkpt>
      <trkpt lat="44.73796" lon="2.6338">
        <ele>563.4</ele>
        <time>2022-04-28T14:41:09Z</time>
      </trkpt>
      <trkpt lat="44.73795" lon="2.63384">
        <ele>563</ele>
        <time>2022-04-28T14:41:14Z</time>
      </trkpt>
      <trkpt lat="44.73795" lon="2.63385">
        <ele>563</ele>
        <time>2022-04-28T14:41:16Z</time>
      </trkpt>
      <trkpt lat="44.73794" lon="2.63385">
        <ele>562.6</ele>
        <time>2022-04-28T14:41:19Z</time>
      </trkpt>
      <trkpt lat="44.7379" lon="2.6338">
        <ele>562.8</ele>
        <time>2022-04-28T14:41:30Z</time>
      </trkpt>
      <trkpt lat="44.73789" lon="2.63379">
        <ele>562.8</ele>
        <time>2022-04-28T14:41:32Z</time>
      </trkpt>
      <trkpt lat="44.73789" lon="2.63377">
        <ele>562.8</ele>
        <time>2022-04-28T14:41:34Z</time>
      </trkpt>
      <trkpt lat="44.73787" lon="2.63375">
        <ele>563</ele>
        <time>2022-04-28T14:41:38Z</time>
      </trkpt>
      <trkpt lat="44.73785" lon="2.63375">
        <ele>563</ele>
        <time>2022-04-28T14:41:40Z</time>
      </trkpt>
      <trkpt lat="44.73784" lon="2.63375">
        <ele>562.8</ele>
        <time>2022-04-28T14:41:42Z</time>
      </trkpt>
      <trkpt lat="44.73786" lon="2.63375">
        <ele>562.8</ele>
        <time>2022-04-28T14:41:44Z</time>
      </trkpt>
      <trkpt lat="44.73779" lon="2.63414">
        <ele>563.2</ele>
        <time>2022-04-28T14:42:34Z</time>
      </trkpt>
      <trkpt lat="44.73788" lon="2.63389">
        <ele>563.4</ele>
        <time>2022-04-28T14:42:49Z</time>
      </trkpt>
      <trkpt lat="44.73792" lon="2.63398">
        <ele>563.4</ele>
        <time>2022-04-28T14:42:51Z</time>
      </trkpt>
      <trkpt lat="44.73784" lon="2.63391">
        <ele>563.4</ele>
        <time>2022-04-28T14:42:57Z</time>
      </trkpt>
      <trkpt lat="44.73784" lon="2.63391">
        <ele>564</ele>
        <time>2022-04-28T14:43:22Z</time>
      </trkpt>
      <trkpt lat="44.73794" lon="2.63354">
        <ele>563.4</ele>
        <time>2022-04-28T14:45:21Z</time>
      </trkpt>
      <trkpt lat="44.73785" lon="2.63358">
        <ele>563.4</ele>
        <time>2022-04-28T14:45:35Z</time>
      </trkpt>
      <trkpt lat="44.73785" lon="2.63358">
        <ele>563.4</ele>
        <time>2022-04-28T14:45:54Z</time>
      </trkpt>
      <trkpt lat="44.73785" lon="2.63358">
        <ele>562.6</ele>
        <time>2022-04-28T14:47:11Z</time>
      </trkpt>
      <trkpt lat="44.73778" lon="2.63368">
        <ele>562.8</ele>
        <time>2022-04-28T14:48:56Z</time>
      </trkpt>
      <trkpt lat="44.73776" lon="2.63365">
        <ele>562.8</ele>
        <time>2022-04-28T14:49:20Z</time>
      </trkpt>
      <trkpt lat="44.73776" lon="2.63357">
        <ele>563.2</ele>
        <time>2022-04-28T14:49:35Z</time>
      </trkpt>
      <trkpt lat="44.73778" lon="2.6336">
        <ele>563</ele>
        <time>2022-04-28T14:49:49Z</time>
      </trkpt>
      <trkpt lat="44.73778" lon="2.6336">
        <ele>563.6</ele>
        <time>2022-04-28T14:50:11Z</time>
      </trkpt>
      <trkpt lat="44.73778" lon="2.6336">
        <ele>564.8</ele>
        <time>2022-04-28T14:50:14Z</time>
      </trkpt>
      <trkpt lat="44.73778" lon="2.6336">
        <ele>565.8</ele>
        <time>2022-04-28T14:50:17Z</time>
      </trkpt>
      <trkpt lat="44.73778" lon="2.6336">
        <ele>566.8</ele>
        <time>2022-04-28T14:50:25Z</time>
      </trkpt>
      <trkpt lat="44.73778" lon="2.6336">
        <ele>568</ele>
        <time>2022-04-28T14:50:30Z</time>
      </trkpt>
      <trkpt lat="44.73778" lon="2.6336">
        <ele>569</ele>
        <time>2022-04-28T14:50:35Z</time>
      </trkpt>
      <trkpt lat="44.73778" lon="2.6336">
        <ele>570</ele>
        <time>2022-04-28T14:50:42Z</time>
      </trkpt>
      <trkpt lat="44.73778" lon="2.6336">
        <ele>570.2</ele>
        <time>2022-04-28T14:50:43Z</time>
      </trkpt>
      <trkpt lat="44.73778" lon="2.6336">
        <ele>571.2</ele>
        <time>2022-04-28T14:54:22Z</time>
      </trkpt>
      <trkpt lat="44.73778" lon="2.6336">
        <ele>572.2</ele>
        <time>2022-04-28T14:54:29Z</time>
      </trkpt>
      <trkpt lat="44.73778" lon="2.6336">
        <ele>573.2</ele>
        <time>2022-04-28T14:54:36Z</time>
      </trkpt>
      <trkpt lat="44.73778" lon="2.6336">
        <ele>574.8</ele>
        <time>2022-04-28T14:54:42Z</time>
      </trkpt>
      <trkpt lat="44.73778" lon="2.6336">
        <ele>576.2</ele>
        <time>2022-04-28T14:54:48Z</time>
      </trkpt>
      <trkpt lat="44.73778" lon="2.6336">
        <ele>577.2</ele>
        <time>2022-04-28T14:55:06Z</time>
      </trkpt>
      <trkpt lat="44.73778" lon="2.6336">
        <ele>577.4</ele>
        <time>2022-04-28T14:55:49Z</time>
      </trkpt>
      <trkpt lat="44.73778" lon="2.6336">
        <ele>578.2</ele>
        <time>2022-04-28T14:57:40Z</time>
      </trkpt>
      <trkpt lat="44.73778" lon="2.6336">
        <ele>579.4</ele>
        <time>2022-04-28T14:57:47Z</time>
      </trkpt>
      <trkpt lat="44.73778" lon="2.6336">
        <ele>580.6</ele>
        <time>2022-04-28T14:57:52Z</time>
      </trkpt>
      <trkpt lat="44.73778" lon="2.6336">
        <ele>581.6</ele>
        <time>2022-04-28T14:57:57Z</time>
      </trkpt>
      <trkpt lat="44.73778" lon="2.6336">
        <ele>582.8</ele>
        <time>2022-04-28T14:58:02Z</time>
      </trkpt>
      <trkpt lat="44.73778" lon="2.6336">
        <ele>584.2</ele>
        <time>2022-04-28T14:58:06Z</time>
      </trkpt>
      <trkpt lat="44.73779" lon="2.63367">
        <ele>584.6</ele>
        <time>2022-04-28T14:58:16Z</time>
      </trkpt>
      <trkpt lat="44.73781" lon="2.63371">
        <ele>585.4</ele>
        <time>2022-04-28T14:58:21Z</time>
      </trkpt>
      <trkpt lat="44.73782" lon="2.6337">
        <ele>586</ele>
        <time>2022-04-28T14:58:23Z</time>
      </trkpt>
      <trkpt lat="44.73781" lon="2.63367">
        <ele>586.4</ele>
        <time>2022-04-28T14:58:32Z</time>
      </trkpt>
      <trkpt lat="44.7378" lon="2.63367">
        <ele>585.8</ele>
        <time>2022-04-28T14:58:46Z</time>
      </trkpt>
      <trkpt lat="44.73781" lon="2.63366">
        <ele>585.6</ele>
        <time>2022-04-28T14:59:02Z</time>
      </trkpt>
      <trkpt lat="44.73782" lon="2.63365">
        <ele>585.2</ele>
        <time>2022-04-28T14:59:04Z</time>
      </trkpt>
      <trkpt lat="44.73784" lon="2.63362">
        <ele>585.2</ele>
        <time>2022-04-28T14:59:14Z</time>
      </trkpt>
      <trkpt lat="44.73785" lon="2.63364">
        <ele>585.4</ele>
        <time>2022-04-28T14:59:25Z</time>
      </trkpt>
      <trkpt lat="44.73786" lon="2.63367">
        <ele>585.8</ele>
        <time>2022-04-28T14:59:37Z</time>
      </trkpt>
      <trkpt lat="44.73786" lon="2.63369">
        <ele>585.6</ele>
        <time>2022-04-28T14:59:52Z</time>
      </trkpt>
      <trkpt lat="44.73786" lon="2.63369">
        <ele>586.2</ele>
        <time>2022-04-28T14:59:59Z</time>
      </trkpt>
      <trkpt lat="44.73785" lon="2.63371">
        <ele>586.4</ele>
        <time>2022-04-28T15:00:07Z</time>
      </trkpt>
      <trkpt lat="44.73785" lon="2.63371">
        <ele>586.4</ele>
        <time>2022-04-28T15:00:19Z</time>
      </trkpt>
      <trkpt lat="44.73784" lon="2.63373">
        <ele>586.2</ele>
        <time>2022-04-28T15:00:29Z</time>
      </trkpt>
      <trkpt lat="44.73784" lon="2.63373">
        <ele>586.4</ele>
        <time>2022-04-28T15:00:57Z</time>
      </trkpt>
      <trkpt lat="44.73783" lon="2.63371">
        <ele>586.4</ele>
        <time>2022-04-28T15:01:08Z</time>
      </trkpt>
      <trkpt lat="44.73781" lon="2.63371">
        <ele>586.4</ele>
        <time>2022-04-28T15:01:36Z</time>
      </trkpt>
      <trkpt lat="44.73782" lon="2.63373">
        <ele>586.4</ele>
        <time>2022-04-28T15:01:51Z</time>
      </trkpt>
      <trkpt lat="44.73783" lon="2.63373">
        <ele>586.4</ele>
        <time>2022-04-28T15:02:01Z</time>
      </trkpt>
      <trkpt lat="44.73783" lon="2.63373">
        <ele>586.4</ele>
        <time>2022-04-28T15:02:22Z</time>
      </trkpt>
      <trkpt lat="44.73783" lon="2.63372">
        <ele>586.4</ele>
        <time>2022-04-28T15:02:32Z</time>
      </trkpt>
      <trkpt lat="44.73783" lon="2.63367">
        <ele>586.4</ele>
        <time>2022-04-28T15:02:57Z</time>
      </trkpt>
      <trkpt lat="44.73782" lon="2.63366">
        <ele>586.4</ele>
        <time>2022-04-28T15:03:18Z</time>
      </trkpt>
      <trkpt lat="44.73783" lon="2.63367">
        <ele>586.4</ele>
        <time>2022-04-28T15:03:33Z</time>
      </trkpt>
      <trkpt lat="44.73782" lon="2.63366">
        <ele>586.4</ele>
        <time>2022-04-28T15:03:51Z</time>
      </trkpt>
      <trkpt lat="44.73782" lon="2.63366">
        <ele>586.4</ele>
        <time>2022-04-28T15:04:06Z</time>
      </trkpt>
      <trkpt lat="44.73779" lon="2.63368">
        <ele>586.4</ele>
        <time>2022-04-28T15:04:16Z</time>
      </trkpt>
      <trkpt lat="44.73779" lon="2.63367">
        <ele>586.4</ele>
        <time>2022-04-28T15:04:32Z</time>
      </trkpt>
      <trkpt lat="44.73781" lon="2.63365">
        <ele>586.4</ele>
        <time>2022-04-28T15:04:46Z</time>
      </trkpt>
      <trkpt lat="44.73782" lon="2.63365">
        <ele>586.4</ele>
        <time>2022-04-28T15:04:49Z</time>
      </trkpt>
      <trkpt lat="44.73784" lon="2.63366">
        <ele>586.4</ele>
        <time>2022-04-28T15:04:59Z</time>
      </trkpt>
      <trkpt lat="44.73787" lon="2.6337">
        <ele>586.4</ele>
        <time>2022-04-28T15:05:12Z</time>
      </trkpt>
      <trkpt lat="44.73785" lon="2.63371">
        <ele>586.4</ele>
        <time>2022-04-28T15:05:27Z</time>
      </trkpt>
      <trkpt lat="44.73784" lon="2.63374">
        <ele>586.4</ele>
        <time>2022-04-28T15:05:41Z</time>
      </trkpt>
      <trkpt lat="44.73783" lon="2.63374">
        <ele>586.4</ele>
        <time>2022-04-28T15:05:55Z</time>
      </trkpt>
      <trkpt lat="44.7378" lon="2.63373">
        <ele>586.4</ele>
        <time>2022-04-28T15:06:07Z</time>
      </trkpt>
      <trkpt lat="44.73781" lon="2.63373">
        <ele>586.4</ele>
        <time>2022-04-28T15:06:18Z</time>
      </trkpt>
      <trkpt lat="44.73781" lon="2.63373">
        <ele>586.4</ele>
        <time>2022-04-28T15:06:23Z</time>
      </trkpt>
      <trkpt lat="44.73783" lon="2.63374">
        <ele>586.4</ele>
        <time>2022-04-28T15:06:31Z</time>
      </trkpt>
      <trkpt lat="44.73782" lon="2.63372">
        <ele>586.4</ele>
        <time>2022-04-28T15:06:41Z</time>
      </trkpt>
      <trkpt lat="44.7378" lon="2.63367">
        <ele>586.4</ele>
        <time>2022-04-28T15:06:50Z</time>
      </trkpt>
      <trkpt lat="44.7378" lon="2.63367">
        <ele>586.4</ele>
        <time>2022-04-28T15:07:07Z</time>
      </trkpt>
      <trkpt lat="44.7378" lon="2.63366">
        <ele>586.4</ele>
        <time>2022-04-28T15:07:17Z</time>
      </trkpt>
      <trkpt lat="44.73783" lon="2.63361">
        <ele>586.4</ele>
        <time>2022-04-28T15:07:33Z</time>
      </trkpt>
      <trkpt lat="44.73783" lon="2.63357">
        <ele>583.6</ele>
        <time>2022-04-28T15:07:42Z</time>
      </trkpt>
      <trkpt lat="44.73783" lon="2.63357">
        <ele>582.6</ele>
        <time>2022-04-28T15:07:55Z</time>
      </trkpt>
      <trkpt lat="44.73783" lon="2.63357">
        <ele>581.4</ele>
        <time>2022-04-28T15:07:58Z</time>
      </trkpt>
      <trkpt lat="44.73783" lon="2.63357">
        <ele>580.4</ele>
        <time>2022-04-28T15:08:03Z</time>
      </trkpt>
      <trkpt lat="44.73783" lon="2.63357">
        <ele>579.4</ele>
        <time>2022-04-28T15:08:09Z</time>
      </trkpt>
      <trkpt lat="44.73783" lon="2.63357">
        <ele>578.2</ele>
        <time>2022-04-28T15:08:17Z</time>
      </trkpt>
      <trkpt lat="44.73783" lon="2.63357">
        <ele>577</ele>
        <time>2022-04-28T15:08:38Z</time>
      </trkpt>
      <trkpt lat="44.73783" lon="2.63357">
        <ele>576</ele>
        <time>2022-04-28T15:08:46Z</time>
      </trkpt>
      <trkpt lat="44.73783" lon="2.63357">
        <ele>574.8</ele>
        <time>2022-04-28T15:08:54Z</time>
      </trkpt>
      <trkpt lat="44.73783" lon="2.63357">
        <ele>573.8</ele>
        <time>2022-04-28T15:08:59Z</time>
      </trkpt>
      <trkpt lat="44.73783" lon="2.63357">
        <ele>572.6</ele>
        <time>2022-04-28T15:09:08Z</time>
      </trkpt>
      <trkpt lat="44.73783" lon="2.63357">
        <ele>571.6</ele>
        <time>2022-04-28T15:09:14Z</time>
      </trkpt>
      <trkpt lat="44.73783" lon="2.63357">
        <ele>570.4</ele>
        <time>2022-04-28T15:09:52Z</time>
      </trkpt>
      <trkpt lat="44.73783" lon="2.63357">
        <ele>569.2</ele>
        <time>2022-04-28T15:09:56Z</time>
      </trkpt>
      <trkpt lat="44.73783" lon="2.63357">
        <ele>568</ele>
        <time>2022-04-28T15:10:09Z</time>
      </trkpt>
      <trkpt lat="44.73783" lon="2.63357">
        <ele>566.8</ele>
        <time>2022-04-28T15:10:23Z</time>
      </trkpt>
      <trkpt lat="44.73783" lon="2.63357">
        <ele>565.8</ele>
        <time>2022-04-28T15:10:28Z</time>
      </trkpt>
      <trkpt lat="44.73783" lon="2.63357">
        <ele>564.8</ele>
        <time>2022-04-28T15:10:31Z</time>
      </trkpt>
      <trkpt lat="44.73783" lon="2.63357">
        <ele>563.6</ele>
        <time>2022-04-28T15:10:35Z</time>
      </trkpt>
      <trkpt lat="44.73783" lon="2.63357">
        <ele>563</ele>
        <time>2022-04-28T15:10:49Z</time>
      </trkpt>
      <trkpt lat="44.73783" lon="2.63357">
        <ele>562.6</ele>
        <time>2022-04-28T15:11:41Z</time>
      </trkpt>
      <trkpt lat="44.73783" lon="2.63357">
        <ele>563</ele>
        <time>2022-04-28T15:12:11Z</time>
      </trkpt>
      <trkpt lat="44.73779" lon="2.63359">
        <ele>563</ele>
        <time>2022-04-28T15:12:19Z</time>
      </trkpt>
      <trkpt lat="44.73786" lon="2.63375">
        <ele>563</ele>
        <time>2022-04-28T15:12:33Z</time>
      </trkpt>
      <trkpt lat="44.73787" lon="2.63377">
        <ele>563</ele>
        <time>2022-04-28T15:12:34Z</time>
      </trkpt>
      <trkpt lat="44.73789" lon="2.63379">
        <ele>563</ele>
        <time>2022-04-28T15:12:37Z</time>
      </trkpt>
      <trkpt lat="44.73789" lon="2.63381">
        <ele>562.6</ele>
        <time>2022-04-28T15:12:50Z</time>
      </trkpt>
      <trkpt lat="44.73792" lon="2.63386">
        <ele>563.6</ele>
        <time>2022-04-28T15:12:58Z</time>
      </trkpt>
      <trkpt lat="44.73798" lon="2.6339">
        <ele>562.2</ele>
        <time>2022-04-28T15:13:05Z</time>
      </trkpt>
      <trkpt lat="44.73799" lon="2.6339">
        <ele>562.2</ele>
        <time>2022-04-28T15:13:06Z</time>
      </trkpt>
      <trkpt lat="44.73803" lon="2.6339">
        <ele>562</ele>
        <time>2022-04-28T15:13:13Z</time>
      </trkpt>
      <trkpt lat="44.73805" lon="2.63388">
        <ele>561.8</ele>
        <time>2022-04-28T15:13:20Z</time>
      </trkpt>
      <trkpt lat="44.73803" lon="2.6339">
        <ele>561.2</ele>
        <time>2022-04-28T15:13:32Z</time>
      </trkpt>
      <trkpt lat="44.73803" lon="2.6339">
        <ele>561.2</ele>
        <time>2022-04-28T15:13:33Z</time>
      </trkpt>
      <trkpt lat="44.73802" lon="2.63389">
        <ele>561.4</ele>
        <time>2022-04-28T15:13:45Z</time>
      </trkpt>
      <trkpt lat="44.73803" lon="2.63392">
        <ele>561</ele>
        <time>2022-04-28T15:14:01Z</time>
      </trkpt>
      <trkpt lat="44.73799" lon="2.63391">
        <ele>562.2</ele>
        <time>2022-04-28T15:14:15Z</time>
      </trkpt>
      <trkpt lat="44.73797" lon="2.63391">
        <ele>562.2</ele>
        <time>2022-04-28T15:14:20Z</time>
      </trkpt>
      <trkpt lat="44.738" lon="2.63397">
        <ele>562.2</ele>
        <time>2022-04-28T15:14:42Z</time>
      </trkpt>
      <trkpt lat="44.73795" lon="2.63396">
        <ele>562</ele>
        <time>2022-04-28T15:14:48Z</time>
      </trkpt>
      <trkpt lat="44.73794" lon="2.63398">
        <ele>561.8</ele>
        <time>2022-04-28T15:15:00Z</time>
      </trkpt>
      <trkpt lat="44.73799" lon="2.63406">
        <ele>562.6</ele>
        <time>2022-04-28T15:15:13Z</time>
      </trkpt>
      <trkpt lat="44.73803" lon="2.63405">
        <ele>562.6</ele>
        <time>2022-04-28T15:15:18Z</time>
      </trkpt>
      <trkpt lat="44.73805" lon="2.6341">
        <ele>562.4</ele>
        <time>2022-04-28T15:15:23Z</time>
      </trkpt>
      <trkpt lat="44.73808" lon="2.63412">
        <ele>560</ele>
        <time>2022-04-28T15:15:27Z</time>
      </trkpt>
      <trkpt lat="44.73812" lon="2.63413">
        <ele>559.4</ele>
        <time>2022-04-28T15:15:33Z</time>
      </trkpt>
      <trkpt lat="44.73813" lon="2.63413">
        <ele>559.4</ele>
        <time>2022-04-28T15:15:34Z</time>
      </trkpt>
      <trkpt lat="44.73814" lon="2.63413">
        <ele>559.4</ele>
        <time>2022-04-28T15:15:35Z</time>
      </trkpt>
      <trkpt lat="44.73815" lon="2.63414">
        <ele>559.4</ele>
        <time>2022-04-28T15:15:37Z</time>
      </trkpt>
      <trkpt lat="44.73819" lon="2.63415">
        <ele>559</ele>
        <time>2022-04-28T15:15:43Z</time>
      </trkpt>
      <trkpt lat="44.73822" lon="2.63415">
        <ele>559</ele>
        <time>2022-04-28T15:15:46Z</time>
      </trkpt>
      <trkpt lat="44.73824" lon="2.63415">
        <ele>559</ele>
        <time>2022-04-28T15:15:48Z</time>
      </trkpt>
      <trkpt lat="44.73825" lon="2.63415">
        <ele>558.8</ele>
        <time>2022-04-28T15:15:49Z</time>
      </trkpt>
      <trkpt lat="44.73832" lon="2.63412">
        <ele>558</ele>
        <time>2022-04-28T15:15:59Z</time>
      </trkpt>
      <trkpt lat="44.73832" lon="2.63412">
        <ele>557.8</ele>
        <time>2022-04-28T15:16:00Z</time>
      </trkpt>
      <trkpt lat="44.73834" lon="2.63412">
        <ele>557.6</ele>
        <time>2022-04-28T15:16:02Z</time>
      </trkpt>
      <trkpt lat="44.73836" lon="2.63414">
        <ele>557.4</ele>
        <time>2022-04-28T15:16:05Z</time>
      </trkpt>
      <trkpt lat="44.73839" lon="2.63416">
        <ele>557</ele>
        <time>2022-04-28T15:16:09Z</time>
      </trkpt>
      <trkpt lat="44.7384" lon="2.63417">
        <ele>556.8</ele>
        <time>2022-04-28T15:16:13Z</time>
      </trkpt>
      <trkpt lat="44.73842" lon="2.63418">
        <ele>556.8</ele>
        <time>2022-04-28T15:16:16Z</time>
      </trkpt>
      <trkpt lat="44.73842" lon="2.63419">
        <ele>556.6</ele>
        <time>2022-04-28T15:16:17Z</time>
      </trkpt>
      <trkpt lat="44.73844" lon="2.6342">
        <ele>556</ele>
        <time>2022-04-28T15:16:20Z</time>
      </trkpt>
      <trkpt lat="44.73844" lon="2.63421">
        <ele>556</ele>
        <time>2022-04-28T15:16:21Z</time>
      </trkpt>
      <trkpt lat="44.73844" lon="2.63421">
        <ele>555.8</ele>
        <time>2022-04-28T15:16:22Z</time>
      </trkpt>
      <trkpt lat="44.73846" lon="2.63424">
        <ele>555.8</ele>
        <time>2022-04-28T15:16:25Z</time>
      </trkpt>
      <trkpt lat="44.73847" lon="2.63426">
        <ele>555.6</ele>
        <time>2022-04-28T15:16:27Z</time>
      </trkpt>
      <trkpt lat="44.73847" lon="2.63427">
        <ele>555.6</ele>
        <time>2022-04-28T15:16:29Z</time>
      </trkpt>
      <trkpt lat="44.73847" lon="2.63428">
        <ele>555.6</ele>
        <time>2022-04-28T15:16:30Z</time>
      </trkpt>
      <trkpt lat="44.73848" lon="2.63429">
        <ele>555.6</ele>
        <time>2022-04-28T15:16:31Z</time>
      </trkpt>
      <trkpt lat="44.73848" lon="2.63432">
        <ele>554.4</ele>
        <time>2022-04-28T15:16:40Z</time>
      </trkpt>
      <trkpt lat="44.73848" lon="2.63434">
        <ele>553.6</ele>
        <time>2022-04-28T15:16:43Z</time>
      </trkpt>
      <trkpt lat="44.73848" lon="2.63434">
        <ele>553.4</ele>
        <time>2022-04-28T15:16:44Z</time>
      </trkpt>
      <trkpt lat="44.73848" lon="2.63436">
        <ele>552.6</ele>
        <time>2022-04-28T15:16:54Z</time>
      </trkpt>
      <trkpt lat="44.73849" lon="2.63438">
        <ele>552.2</ele>
        <time>2022-04-28T15:16:57Z</time>
      </trkpt>
      <trkpt lat="44.73851" lon="2.63441">
        <ele>551.2</ele>
        <time>2022-04-28T15:17:05Z</time>
      </trkpt>
      <trkpt lat="44.73851" lon="2.63442">
        <ele>551</ele>
        <time>2022-04-28T15:17:06Z</time>
      </trkpt>
      <trkpt lat="44.73857" lon="2.63443">
        <ele>550.2</ele>
        <time>2022-04-28T15:17:18Z</time>
      </trkpt>
      <trkpt lat="44.73858" lon="2.63443">
        <ele>550</ele>
        <time>2022-04-28T15:17:20Z</time>
      </trkpt>
      <trkpt lat="44.7386" lon="2.63441">
        <ele>548.8</ele>
        <time>2022-04-28T15:17:26Z</time>
      </trkpt>
      <trkpt lat="44.73861" lon="2.63438">
        <ele>548.6</ele>
        <time>2022-04-28T15:17:29Z</time>
      </trkpt>
      <trkpt lat="44.73861" lon="2.63436">
        <ele>548.2</ele>
        <time>2022-04-28T15:17:31Z</time>
      </trkpt>
      <trkpt lat="44.73862" lon="2.63433">
        <ele>547.8</ele>
        <time>2022-04-28T15:17:34Z</time>
      </trkpt>
      <trkpt lat="44.73864" lon="2.63429">
        <ele>547.4</ele>
        <time>2022-04-28T15:17:41Z</time>
      </trkpt>
      <trkpt lat="44.73869" lon="2.63433">
        <ele>547</ele>
        <time>2022-04-28T15:17:50Z</time>
      </trkpt>
      <trkpt lat="44.7387" lon="2.63435">
        <ele>547</ele>
        <time>2022-04-28T15:17:52Z</time>
      </trkpt>
      <trkpt lat="44.73872" lon="2.63436">
        <ele>546.8</ele>
        <time>2022-04-28T15:17:55Z</time>
      </trkpt>
      <trkpt lat="44.73876" lon="2.6344">
        <ele>545.6</ele>
        <time>2022-04-28T15:18:01Z</time>
      </trkpt>
      <trkpt lat="44.73879" lon="2.63442">
        <ele>544.8</ele>
        <time>2022-04-28T15:18:05Z</time>
      </trkpt>
      <trkpt lat="44.73884" lon="2.63447">
        <ele>544.8</ele>
        <time>2022-04-28T15:18:13Z</time>
      </trkpt>
      <trkpt lat="44.73886" lon="2.63449">
        <ele>544.6</ele>
        <time>2022-04-28T15:18:15Z</time>
      </trkpt>
      <trkpt lat="44.7389" lon="2.63452">
        <ele>544</ele>
        <time>2022-04-28T15:18:19Z</time>
      </trkpt>
      <trkpt lat="44.73895" lon="2.63458">
        <ele>543.6</ele>
        <time>2022-04-28T15:18:27Z</time>
      </trkpt>
      <trkpt lat="44.73898" lon="2.6346">
        <ele>543</ele>
        <time>2022-04-28T15:18:31Z</time>
      </trkpt>
      <trkpt lat="44.73903" lon="2.63464">
        <ele>542.4</ele>
        <time>2022-04-28T15:18:36Z</time>
      </trkpt>
      <trkpt lat="44.73911" lon="2.63471">
        <ele>541.6</ele>
        <time>2022-04-28T15:18:46Z</time>
      </trkpt>
      <trkpt lat="44.73912" lon="2.63473">
        <ele>541.4</ele>
        <time>2022-04-28T15:18:48Z</time>
      </trkpt>
      <trkpt lat="44.73919" lon="2.63478">
        <ele>540.4</ele>
        <time>2022-04-28T15:18:56Z</time>
      </trkpt>
      <trkpt lat="44.73924" lon="2.63482">
        <ele>539.8</ele>
        <time>2022-04-28T15:19:03Z</time>
      </trkpt>
      <trkpt lat="44.73928" lon="2.63486">
        <ele>539.2</ele>
        <time>2022-04-28T15:19:09Z</time>
      </trkpt>
      <trkpt lat="44.73937" lon="2.63494">
        <ele>538.6</ele>
        <time>2022-04-28T15:19:22Z</time>
      </trkpt>
      <trkpt lat="44.73939" lon="2.63496">
        <ele>538.2</ele>
        <time>2022-04-28T15:19:25Z</time>
      </trkpt>
      <trkpt lat="44.73944" lon="2.635">
        <ele>538.2</ele>
        <time>2022-04-28T15:19:32Z</time>
      </trkpt>
      <trkpt lat="44.73945" lon="2.63501">
        <ele>538.2</ele>
        <time>2022-04-28T15:19:36Z</time>
      </trkpt>
      <trkpt lat="44.73947" lon="2.63501">
        <ele>538.4</ele>
        <time>2022-04-28T15:19:50Z</time>
      </trkpt>
      <trkpt lat="44.73946" lon="2.63503">
        <ele>538.8</ele>
        <time>2022-04-28T15:20:04Z</time>
      </trkpt>
      <trkpt lat="44.7395" lon="2.63506">
        <ele>538.6</ele>
        <time>2022-04-28T15:20:14Z</time>
      </trkpt>
      <trkpt lat="44.73952" lon="2.63514">
        <ele>538.6</ele>
        <time>2022-04-28T15:20:23Z</time>
      </trkpt>
      <trkpt lat="44.73952" lon="2.63516">
        <ele>538.6</ele>
        <time>2022-04-28T15:20:25Z</time>
      </trkpt>
      <trkpt lat="44.7395" lon="2.63519">
        <ele>538.6</ele>
        <time>2022-04-28T15:20:28Z</time>
      </trkpt>
      <trkpt lat="44.73949" lon="2.63521">
        <ele>538.6</ele>
        <time>2022-04-28T15:20:30Z</time>
      </trkpt>
      <trkpt lat="44.73947" lon="2.63523">
        <ele>537.8</ele>
        <time>2022-04-28T15:20:35Z</time>
      </trkpt>
      <trkpt lat="44.73947" lon="2.63522">
        <ele>537.4</ele>
        <time>2022-04-28T15:20:44Z</time>
      </trkpt>
      <trkpt lat="44.73947" lon="2.6352">
        <ele>537.2</ele>
        <time>2022-04-28T15:20:49Z</time>
      </trkpt>
      <trkpt lat="44.73947" lon="2.6352">
        <ele>537.2</ele>
        <time>2022-04-28T15:20:50Z</time>
      </trkpt>
      <trkpt lat="44.73946" lon="2.6352">
        <ele>536.8</ele>
        <time>2022-04-28T15:21:10Z</time>
      </trkpt>
      <trkpt lat="44.73946" lon="2.63522">
        <ele>537.6</ele>
        <time>2022-04-28T15:21:27Z</time>
      </trkpt>
      <trkpt lat="44.73947" lon="2.63522">
        <ele>537.6</ele>
        <time>2022-04-28T15:21:46Z</time>
      </trkpt>
      <trkpt lat="44.73947" lon="2.63522">
        <ele>537.6</ele>
        <time>2022-04-28T15:22:12Z</time>
      </trkpt>
      <trkpt lat="44.73948" lon="2.63522">
        <ele>537.6</ele>
        <time>2022-04-28T15:22:30Z</time>
      </trkpt>
      <trkpt lat="44.73947" lon="2.63524">
        <ele>537.6</ele>
        <time>2022-04-28T15:22:47Z</time>
      </trkpt>
      <trkpt lat="44.73947" lon="2.63525">
        <ele>537.6</ele>
        <time>2022-04-28T15:23:02Z</time>
      </trkpt>
      <trkpt lat="44.73947" lon="2.63525">
        <ele>537.6</ele>
        <time>2022-04-28T15:23:08Z</time>
      </trkpt>
      <trkpt lat="44.73947" lon="2.63526">
        <ele>537.6</ele>
        <time>2022-04-28T15:23:29Z</time>
      </trkpt>
      <trkpt lat="44.73948" lon="2.63526">
        <ele>537.6</ele>
        <time>2022-04-28T15:23:49Z</time>
      </trkpt>
      <trkpt lat="44.73949" lon="2.63521">
        <ele>537.6</ele>
        <time>2022-04-28T15:24:07Z</time>
      </trkpt>
      <trkpt lat="44.73952" lon="2.63516">
        <ele>537.6</ele>
        <time>2022-04-28T15:24:22Z</time>
      </trkpt>
      <trkpt lat="44.73956" lon="2.63511">
        <ele>537.6</ele>
        <time>2022-04-28T15:24:30Z</time>
      </trkpt>
      <trkpt lat="44.73958" lon="2.63511">
        <ele>537.6</ele>
        <time>2022-04-28T15:24:32Z</time>
      </trkpt>
      <trkpt lat="44.73958" lon="2.6351">
        <ele>537.6</ele>
        <time>2022-04-28T15:24:34Z</time>
      </trkpt>
      <trkpt lat="44.73959" lon="2.63509">
        <ele>537.6</ele>
        <time>2022-04-28T15:24:35Z</time>
      </trkpt>
      <trkpt lat="44.73965" lon="2.6351">
        <ele>538</ele>
        <time>2022-04-28T15:24:47Z</time>
      </trkpt>
      <trkpt lat="44.73967" lon="2.63512">
        <ele>538</ele>
        <time>2022-04-28T15:25:04Z</time>
      </trkpt>
      <trkpt lat="44.73968" lon="2.63514">
        <ele>538.2</ele>
        <time>2022-04-28T15:25:22Z</time>
      </trkpt>
      <trkpt lat="44.73964" lon="2.63507">
        <ele>538.2</ele>
        <time>2022-04-28T15:25:40Z</time>
      </trkpt>
      <trkpt lat="44.73969" lon="2.63509">
        <ele>538.2</ele>
        <time>2022-04-28T15:25:50Z</time>
      </trkpt>
      <trkpt lat="44.73972" lon="2.63514">
        <ele>538.4</ele>
        <time>2022-04-28T15:26:03Z</time>
      </trkpt>
      <trkpt lat="44.73974" lon="2.63513">
        <ele>538.4</ele>
        <time>2022-04-28T15:26:16Z</time>
      </trkpt>
      <trkpt lat="44.73974" lon="2.63512">
        <ele>539</ele>
        <time>2022-04-28T15:26:33Z</time>
      </trkpt>
      <trkpt lat="44.73974" lon="2.63511">
        <ele>539</ele>
        <time>2022-04-28T15:26:50Z</time>
      </trkpt>
      <trkpt lat="44.73979" lon="2.63516">
        <ele>538.6</ele>
        <time>2022-04-28T15:27:01Z</time>
      </trkpt>
      <trkpt lat="44.73982" lon="2.6352">
        <ele>538.8</ele>
        <time>2022-04-28T15:27:07Z</time>
      </trkpt>
      <trkpt lat="44.73986" lon="2.63523">
        <ele>539.2</ele>
        <time>2022-04-28T15:27:11Z</time>
      </trkpt>
      <trkpt lat="44.73988" lon="2.63525">
        <ele>539.8</ele>
        <time>2022-04-28T15:27:14Z</time>
      </trkpt>
      <trkpt lat="44.73994" lon="2.63531">
        <ele>540.4</ele>
        <time>2022-04-28T15:27:23Z</time>
      </trkpt>
      <trkpt lat="44.73996" lon="2.63533">
        <ele>541</ele>
        <time>2022-04-28T15:27:26Z</time>
      </trkpt>
      <trkpt lat="44.73998" lon="2.63538">
        <ele>541.6</ele>
        <time>2022-04-28T15:27:30Z</time>
      </trkpt>
      <trkpt lat="44.73999" lon="2.63547">
        <ele>542.4</ele>
        <time>2022-04-28T15:27:37Z</time>
      </trkpt>
      <trkpt lat="44.73999" lon="2.63549">
        <ele>542.6</ele>
        <time>2022-04-28T15:27:38Z</time>
      </trkpt>
      <trkpt lat="44.73997" lon="2.6357">
        <ele>543.6</ele>
        <time>2022-04-28T15:27:52Z</time>
      </trkpt>
      <trkpt lat="44.73996" lon="2.63572">
        <ele>543.8</ele>
        <time>2022-04-28T15:27:53Z</time>
      </trkpt>
      <trkpt lat="44.73995" lon="2.63578">
        <ele>544.8</ele>
        <time>2022-04-28T15:28:00Z</time>
      </trkpt>
      <trkpt lat="44.73998" lon="2.63584">
        <ele>544.8</ele>
        <time>2022-04-28T15:28:05Z</time>
      </trkpt>
      <trkpt lat="44.73998" lon="2.6359">
        <ele>545.2</ele>
        <time>2022-04-28T15:28:11Z</time>
      </trkpt>
      <trkpt lat="44.73998" lon="2.63592">
        <ele>545.2</ele>
        <time>2022-04-28T15:28:13Z</time>
      </trkpt>
      <trkpt lat="44.73998" lon="2.63592">
        <ele>545.4</ele>
        <time>2022-04-28T15:28:15Z</time>
      </trkpt>
      <trkpt lat="44.73998" lon="2.63592">
        <ele>545.8</ele>
        <time>2022-04-28T15:28:19Z</time>
      </trkpt>
      <trkpt lat="44.73999" lon="2.63593">
        <ele>545.6</ele>
        <time>2022-04-28T15:28:29Z</time>
      </trkpt>
      <trkpt lat="44.74004" lon="2.63595">
        <ele>545.2</ele>
        <time>2022-04-28T15:28:41Z</time>
      </trkpt>
      <trkpt lat="44.74007" lon="2.63596">
        <ele>545.4</ele>
        <time>2022-04-28T15:28:51Z</time>
      </trkpt>
      <trkpt lat="44.7401" lon="2.63591">
        <ele>545.6</ele>
        <time>2022-04-28T15:29:08Z</time>
      </trkpt>
      <trkpt lat="44.74005" lon="2.63588">
        <ele>545.2</ele>
        <time>2022-04-28T15:29:16Z</time>
      </trkpt>
      <trkpt lat="44.74005" lon="2.63587">
        <ele>545.4</ele>
        <time>2022-04-28T15:29:17Z</time>
      </trkpt>
      <trkpt lat="44.73998" lon="2.63582">
        <ele>545.2</ele>
        <time>2022-04-28T15:29:25Z</time>
      </trkpt>
      <trkpt lat="44.73994" lon="2.63579">
        <ele>544.8</ele>
        <time>2022-04-28T15:29:29Z</time>
      </trkpt>
      <trkpt lat="44.73993" lon="2.63579">
        <ele>545</ele>
        <time>2022-04-28T15:29:30Z</time>
      </trkpt>
      <trkpt lat="44.73993" lon="2.63579">
        <ele>545.4</ele>
        <time>2022-04-28T15:29:32Z</time>
      </trkpt>
      <trkpt lat="44.73992" lon="2.6358">
        <ele>545.8</ele>
        <time>2022-04-28T15:29:35Z</time>
      </trkpt>
      <trkpt lat="44.73992" lon="2.6358">
        <ele>546.6</ele>
        <time>2022-04-28T15:29:39Z</time>
      </trkpt>
      <trkpt lat="44.73992" lon="2.63581">
        <ele>546.6</ele>
        <time>2022-04-28T15:29:55Z</time>
      </trkpt>
      <trkpt lat="44.73992" lon="2.63581">
        <ele>546.6</ele>
        <time>2022-04-28T15:30:06Z</time>
      </trkpt>
      <trkpt lat="44.73993" lon="2.63579">
        <ele>546.6</ele>
        <time>2022-04-28T15:30:11Z</time>
      </trkpt>
      <trkpt lat="44.73996" lon="2.63575">
        <ele>546.6</ele>
        <time>2022-04-28T15:30:21Z</time>
      </trkpt>
      <trkpt lat="44.74" lon="2.6357">
        <ele>544</ele>
        <time>2022-04-28T15:30:27Z</time>
      </trkpt>
      <trkpt lat="44.73998" lon="2.63563">
        <ele>543.6</ele>
        <time>2022-04-28T15:30:31Z</time>
      </trkpt>
      <trkpt lat="44.73999" lon="2.63551">
        <ele>542.8</ele>
        <time>2022-04-28T15:30:40Z</time>
      </trkpt>
      <trkpt lat="44.74001" lon="2.63545">
        <ele>542.4</ele>
        <time>2022-04-28T15:30:44Z</time>
      </trkpt>
      <trkpt lat="44.74001" lon="2.63542">
        <ele>541.8</ele>
        <time>2022-04-28T15:30:48Z</time>
      </trkpt>
      <trkpt lat="44.73998" lon="2.63536">
        <ele>541</ele>
        <time>2022-04-28T15:30:52Z</time>
      </trkpt>
      <trkpt lat="44.73996" lon="2.63533">
        <ele>540.6</ele>
        <time>2022-04-28T15:30:55Z</time>
      </trkpt>
      <trkpt lat="44.7399" lon="2.6353">
        <ele>540.2</ele>
        <time>2022-04-28T15:31:01Z</time>
      </trkpt>
      <trkpt lat="44.73986" lon="2.63527">
        <ele>539.8</ele>
        <time>2022-04-28T15:31:05Z</time>
      </trkpt>
      <trkpt lat="44.73983" lon="2.63524">
        <ele>539.6</ele>
        <time>2022-04-28T15:31:08Z</time>
      </trkpt>
      <trkpt lat="44.73974" lon="2.63517">
        <ele>538.4</ele>
        <time>2022-04-28T15:31:18Z</time>
      </trkpt>
      <trkpt lat="44.73973" lon="2.63515">
        <ele>538</ele>
        <time>2022-04-28T15:31:20Z</time>
      </trkpt>
      <trkpt lat="44.73965" lon="2.63504">
        <ele>537.6</ele>
        <time>2022-04-28T15:31:32Z</time>
      </trkpt>
      <trkpt lat="44.73961" lon="2.63508">
        <ele>537.4</ele>
        <time>2022-04-28T15:31:38Z</time>
      </trkpt>
      <trkpt lat="44.7396" lon="2.6351">
        <ele>536.4</ele>
        <time>2022-04-28T15:31:40Z</time>
      </trkpt>
      <trkpt lat="44.7396" lon="2.63511">
        <ele>536.4</ele>
        <time>2022-04-28T15:31:41Z</time>
      </trkpt>
      <trkpt lat="44.73959" lon="2.63515">
        <ele>536</ele>
        <time>2022-04-28T15:31:46Z</time>
      </trkpt>
      <trkpt lat="44.73959" lon="2.63515">
        <ele>535.8</ele>
        <time>2022-04-28T15:31:49Z</time>
      </trkpt>
      <trkpt lat="44.7396" lon="2.63516">
        <ele>535.8</ele>
        <time>2022-04-28T15:31:52Z</time>
      </trkpt>
      <trkpt lat="44.73959" lon="2.63517">
        <ele>535.2</ele>
        <time>2022-04-28T15:31:57Z</time>
      </trkpt>
      <trkpt lat="44.73959" lon="2.63518">
        <ele>535.4</ele>
        <time>2022-04-28T15:32:07Z</time>
      </trkpt>
      <trkpt lat="44.73958" lon="2.63518">
        <ele>536.4</ele>
        <time>2022-04-28T15:32:20Z</time>
      </trkpt>
      <trkpt lat="44.73958" lon="2.63517">
        <ele>536.2</ele>
        <time>2022-04-28T15:32:35Z</time>
      </trkpt>
      <trkpt lat="44.73956" lon="2.63519">
        <ele>536.4</ele>
        <time>2022-04-28T15:32:53Z</time>
      </trkpt>
      <trkpt lat="44.73956" lon="2.6352">
        <ele>536.8</ele>
        <time>2022-04-28T15:33:06Z</time>
      </trkpt>
      <trkpt lat="44.73957" lon="2.63516">
        <ele>536.4</ele>
        <time>2022-04-28T15:33:19Z</time>
      </trkpt>
      <trkpt lat="44.73959" lon="2.63517">
        <ele>536</ele>
        <time>2022-04-28T15:33:29Z</time>
      </trkpt>
      <trkpt lat="44.73959" lon="2.63516">
        <ele>536</ele>
        <time>2022-04-28T15:33:43Z</time>
      </trkpt>
      <trkpt lat="44.7396" lon="2.63519">
        <ele>536.6</ele>
        <time>2022-04-28T15:33:58Z</time>
      </trkpt>
      <trkpt lat="44.7396" lon="2.6352">
        <ele>536.6</ele>
        <time>2022-04-28T15:34:14Z</time>
      </trkpt>
      <trkpt lat="44.7396" lon="2.63521">
        <ele>536.6</ele>
        <time>2022-04-28T15:34:32Z</time>
      </trkpt>
      <trkpt lat="44.7396" lon="2.6352">
        <ele>536.6</ele>
        <time>2022-04-28T15:34:50Z</time>
      </trkpt>
      <trkpt lat="44.73961" lon="2.63518">
        <ele>536.6</ele>
        <time>2022-04-28T15:35:11Z</time>
      </trkpt>
      <trkpt lat="44.73958" lon="2.63513">
        <ele>536.6</ele>
        <time>2022-04-28T15:35:23Z</time>
      </trkpt>
      <trkpt lat="44.73963" lon="2.63508">
        <ele>536.6</ele>
        <time>2022-04-28T15:35:30Z</time>
      </trkpt>
      <trkpt lat="44.73965" lon="2.63508">
        <ele>536.6</ele>
        <time>2022-04-28T15:35:31Z</time>
      </trkpt>
      <trkpt lat="44.73966" lon="2.63509">
        <ele>536.6</ele>
        <time>2022-04-28T15:35:32Z</time>
      </trkpt>
      <trkpt lat="44.73974" lon="2.63512">
        <ele>536.8</ele>
        <time>2022-04-28T15:35:35Z</time>
      </trkpt>
      <trkpt lat="44.73991" lon="2.63522">
        <ele>537</ele>
        <time>2022-04-28T15:35:40Z</time>
      </trkpt>
      <trkpt lat="44.73995" lon="2.63524">
        <ele>537</ele>
        <time>2022-04-28T15:35:41Z</time>
      </trkpt>
      <trkpt lat="44.74005" lon="2.63526">
        <ele>536.8</ele>
        <time>2022-04-28T15:35:43Z</time>
      </trkpt>
      <trkpt lat="44.74019" lon="2.63529">
        <ele>536.6</ele>
        <time>2022-04-28T15:35:46Z</time>
      </trkpt>
      <trkpt lat="44.74039" lon="2.63536">
        <ele>536.6</ele>
        <time>2022-04-28T15:35:49Z</time>
      </trkpt>
      <trkpt lat="44.74046" lon="2.63539">
        <ele>536.6</ele>
        <time>2022-04-28T15:35:50Z</time>
      </trkpt>
      <trkpt lat="44.74067" lon="2.63549">
        <ele>536</ele>
        <time>2022-04-28T15:35:53Z</time>
      </trkpt>
      <trkpt lat="44.74092" lon="2.63558">
        <ele>535.2</ele>
        <time>2022-04-28T15:35:56Z</time>
      </trkpt>
      <trkpt lat="44.741" lon="2.6356">
        <ele>535</ele>
        <time>2022-04-28T15:35:57Z</time>
      </trkpt>
      <trkpt lat="44.74126" lon="2.63567">
        <ele>534.4</ele>
        <time>2022-04-28T15:36:00Z</time>
      </trkpt>
      <trkpt lat="44.74135" lon="2.63568">
        <ele>534.2</ele>
        <time>2022-04-28T15:36:01Z</time>
      </trkpt>
      <trkpt lat="44.7415" lon="2.63569">
        <ele>533.4</ele>
        <time>2022-04-28T15:36:03Z</time>
      </trkpt>
      <trkpt lat="44.74156" lon="2.63569">
        <ele>533.2</ele>
        <time>2022-04-28T15:36:04Z</time>
      </trkpt>
      <trkpt lat="44.74166" lon="2.63568">
        <ele>532</ele>
        <time>2022-04-28T15:36:06Z</time>
      </trkpt>
      <trkpt lat="44.74169" lon="2.63568">
        <ele>531.6</ele>
        <time>2022-04-28T15:36:07Z</time>
      </trkpt>
      <trkpt lat="44.74174" lon="2.63565">
        <ele>531</ele>
        <time>2022-04-28T15:36:09Z</time>
      </trkpt>
      <trkpt lat="44.74175" lon="2.63563">
        <ele>530.8</ele>
        <time>2022-04-28T15:36:10Z</time>
      </trkpt>
      <trkpt lat="44.74175" lon="2.63563">
        <ele>530.6</ele>
        <time>2022-04-28T15:36:11Z</time>
      </trkpt>
      <trkpt lat="44.74162" lon="2.63559">
        <ele>530.2</ele>
        <time>2022-04-28T15:36:15Z</time>
      </trkpt>
      <trkpt lat="44.74142" lon="2.63558">
        <ele>530</ele>
        <time>2022-04-28T15:36:18Z</time>
      </trkpt>
      <trkpt lat="44.74136" lon="2.63557">
        <ele>530</ele>
        <time>2022-04-28T15:36:19Z</time>
      </trkpt>
      <trkpt lat="44.74129" lon="2.63555">
        <ele>529.6</ele>
        <time>2022-04-28T15:36:20Z</time>
      </trkpt>
      <trkpt lat="44.74103" lon="2.63546">
        <ele>528.8</ele>
        <time>2022-04-28T15:36:23Z</time>
      </trkpt>
      <trkpt lat="44.74094" lon="2.63541">
        <ele>528.4</ele>
        <time>2022-04-28T15:36:24Z</time>
      </trkpt>
      <trkpt lat="44.74077" lon="2.63533">
        <ele>527.6</ele>
        <time>2022-04-28T15:36:26Z</time>
      </trkpt>
      <trkpt lat="44.74067" lon="2.63528">
        <ele>527.4</ele>
        <time>2022-04-28T15:36:27Z</time>
      </trkpt>
      <trkpt lat="44.7405" lon="2.63518">
        <ele>525.8</ele>
        <time>2022-04-28T15:36:29Z</time>
      </trkpt>
      <trkpt lat="44.74032" lon="2.63506">
        <ele>524.4</ele>
        <time>2022-04-28T15:36:31Z</time>
      </trkpt>
      <trkpt lat="44.74013" lon="2.63491">
        <ele>522.8</ele>
        <time>2022-04-28T15:36:33Z</time>
      </trkpt>
      <trkpt lat="44.74003" lon="2.63483">
        <ele>522</ele>
        <time>2022-04-28T15:36:34Z</time>
      </trkpt>
      <trkpt lat="44.73993" lon="2.63474">
        <ele>521.4</ele>
        <time>2022-04-28T15:36:35Z</time>
      </trkpt>
      <trkpt lat="44.73974" lon="2.63457">
        <ele>520.2</ele>
        <time>2022-04-28T15:36:37Z</time>
      </trkpt>
      <trkpt lat="44.73957" lon="2.63436">
        <ele>518.8</ele>
        <time>2022-04-28T15:36:39Z</time>
      </trkpt>
      <trkpt lat="44.73948" lon="2.63426">
        <ele>517.6</ele>
        <time>2022-04-28T15:36:40Z</time>
      </trkpt>
      <trkpt lat="44.73931" lon="2.63404">
        <ele>515.8</ele>
        <time>2022-04-28T15:36:42Z</time>
      </trkpt>
      <trkpt lat="44.73922" lon="2.63394">
        <ele>514.6</ele>
        <time>2022-04-28T15:36:43Z</time>
      </trkpt>
      <trkpt lat="44.73905" lon="2.63373">
        <ele>512.8</ele>
        <time>2022-04-28T15:36:45Z</time>
      </trkpt>
      <trkpt lat="44.73887" lon="2.63353">
        <ele>511</ele>
        <time>2022-04-28T15:36:47Z</time>
      </trkpt>
      <trkpt lat="44.73869" lon="2.63331">
        <ele>509.2</ele>
        <time>2022-04-28T15:36:49Z</time>
      </trkpt>
      <trkpt lat="44.73851" lon="2.63309">
        <ele>507.2</ele>
        <time>2022-04-28T15:36:51Z</time>
      </trkpt>
      <trkpt lat="44.73833" lon="2.63287">
        <ele>505.6</ele>
        <time>2022-04-28T15:36:53Z</time>
      </trkpt>
      <trkpt lat="44.73814" lon="2.63264">
        <ele>503.8</ele>
        <time>2022-04-28T15:36:55Z</time>
      </trkpt>
      <trkpt lat="44.73796" lon="2.6324">
        <ele>502</ele>
        <time>2022-04-28T15:36:57Z</time>
      </trkpt>
      <trkpt lat="44.73787" lon="2.63228">
        <ele>500.6</ele>
        <time>2022-04-28T15:36:58Z</time>
      </trkpt>
      <trkpt lat="44.73777" lon="2.63215">
        <ele>499.4</ele>
        <time>2022-04-28T15:36:59Z</time>
      </trkpt>
      <trkpt lat="44.73759" lon="2.6319">
        <ele>497.4</ele>
        <time>2022-04-28T15:37:01Z</time>
      </trkpt>
      <trkpt lat="44.7375" lon="2.63176">
        <ele>496.2</ele>
        <time>2022-04-28T15:37:02Z</time>
      </trkpt>
      <trkpt lat="44.73741" lon="2.63162">
        <ele>495.6</ele>
        <time>2022-04-28T15:37:03Z</time>
      </trkpt>
      <trkpt lat="44.73733" lon="2.63147">
        <ele>494.6</ele>
        <time>2022-04-28T15:37:04Z</time>
      </trkpt>
      <trkpt lat="44.73725" lon="2.63133">
        <ele>493.4</ele>
        <time>2022-04-28T15:37:05Z</time>
      </trkpt>
      <trkpt lat="44.73718" lon="2.63117">
        <ele>492.4</ele>
        <time>2022-04-28T15:37:06Z</time>
      </trkpt>
      <trkpt lat="44.73711" lon="2.63102">
        <ele>491</ele>
        <time>2022-04-28T15:37:07Z</time>
      </trkpt>
      <trkpt lat="44.73706" lon="2.63091">
        <ele>490</ele>
        <time>2022-04-28T15:37:08Z</time>
      </trkpt>
      <trkpt lat="44.73701" lon="2.6308">
        <ele>488.8</ele>
        <time>2022-04-28T15:37:09Z</time>
      </trkpt>
      <trkpt lat="44.73691" lon="2.63058">
        <ele>487.6</ele>
        <time>2022-04-28T15:37:10Z</time>
      </trkpt>
      <trkpt lat="44.73684" lon="2.63044">
        <ele>486.4</ele>
        <time>2022-04-28T15:37:11Z</time>
      </trkpt>
      <trkpt lat="44.73671" lon="2.63017">
        <ele>484.6</ele>
        <time>2022-04-28T15:37:13Z</time>
      </trkpt>
      <trkpt lat="44.7366" lon="2.62987">
        <ele>482.8</ele>
        <time>2022-04-28T15:37:15Z</time>
      </trkpt>
      <trkpt lat="44.7365" lon="2.62958">
        <ele>481</ele>
        <time>2022-04-28T15:37:17Z</time>
      </trkpt>
      <trkpt lat="44.7364" lon="2.62932">
        <ele>479.2</ele>
        <time>2022-04-28T15:37:18Z</time>
      </trkpt>
      <trkpt lat="44.73637" lon="2.62928">
        <ele>479.2</ele>
        <time>2022-04-28T15:37:19Z</time>
      </trkpt>
      <trkpt lat="44.73633" lon="2.62923">
        <ele>478.2</ele>
        <time>2022-04-28T15:37:20Z</time>
      </trkpt>
      <trkpt lat="44.7363" lon="2.62919">
        <ele>477</ele>
        <time>2022-04-28T15:37:21Z</time>
      </trkpt>
      <trkpt lat="44.7362" lon="2.62906">
        <ele>476.4</ele>
        <time>2022-04-28T15:37:22Z</time>
      </trkpt>
      <trkpt lat="44.73611" lon="2.62901">
        <ele>475.6</ele>
        <time>2022-04-28T15:37:23Z</time>
      </trkpt>
      <trkpt lat="44.73591" lon="2.62902">
        <ele>474</ele>
        <time>2022-04-28T15:37:25Z</time>
      </trkpt>
      <trkpt lat="44.73581" lon="2.62906">
        <ele>473.4</ele>
        <time>2022-04-28T15:37:26Z</time>
      </trkpt>
    </trkseg>
  </trk>
</gpx>